PORTS® Data Listing: 9415144 Port Chicago, CA

CO-OPS RAW PORTS DATA

************************      PRELIMINARY DATA      ************************** 

     THIS RAW DATA HAS NOT BEEN SUBJECT TO THE NATIONAL OCEAN SERVICE'S        
     QUALITY CONTROL OR QUALITY ASSURANCE PROCEDURES AND DOES NOT MEET         
     THE CRITERIA AND STANDARDS OF OFFICIAL NATIONAL OCEAN SERVICE             
     DATA.  IT IS RELEASED FOR LIMITED PUBLIC USE AS PRELIMINARY DATA TO       
     BE USED ONLY WITH APPROPRIATE CAUTION.                                    

************************      PRELIMINARY DATA      ************************** 


       CD   -   Calendar date
       T    -   Time
       TZ   -   Timezone
       PW   -   Predicted water level (feet above MLLW)
       OW   -   Observed water level (feet above MLLW)
       WS   -   Wind speed (knots)
       WD   -   Wind direction (degrees true)
       WG   -   Wind gust (knots)
       AT   -   Air temperature (degrees farenheit)
       WT   -   Water temperature (degrees farenheit)
       AP   -   Air pressure (millibars)
       SA   -   Salinty (PSU - Practical Salinity Units)
       SG   -   Specific gravity
       RH   -   Relative humidity
       AG   -   Air gap (feet)
       VI   -   Visibility (nautical miles)

       ** NOTE **
       A variable that has its data fields filled with "9"s, indicates that
       data was not collected for that sample period.
       **********


STATION NAME: Port Chicago (9415144)
****************************************************************************************************
    CD       T    TZ    PW     OW    WS   WD   WG    AT    WT    AP    SA    SG     RH    AG   VI
****************************************************************************************************
2019/11/18 04:48 PST    2.77 -99.99 -999 -999 -999 -99.9 -99.9 -999.9 -9.9 -9.999 -99.9 -99.99 -9.99
2019/11/18 04:54 PST    2.84 -99.99 -999 -999 -999 -99.9 -99.9 -999.9 -9.9 -9.999 -99.9 -99.99 -9.99
2019/11/18 05:00 PST    2.90 -99.99 -999 -999 -999 -99.9 -99.9 -999.9 -9.9 -9.999 -99.9 -99.99 -9.99
2019/11/18 05:06 PST    2.96 -99.99 -999 -999 -999 -99.9 -99.9 -999.9 -9.9 -9.999 -99.9 -99.99 -9.99
2019/11/18 05:12 PST    3.02 -99.99 -999 -999 -999 -99.9 -99.9 -999.9 -9.9 -9.999 -99.9 -99.99 -9.99
2019/11/18 05:18 PST    3.08 -99.99 -999 -999 -999 -99.9 -99.9 -999.9 -9.9 -9.999 -99.9 -99.99 -9.99
2019/11/18 05:24 PST    3.14 -99.99 -999 -999 -999 -99.9 -99.9 -999.9 -9.9 -9.999 -99.9 -99.99 -9.99
2019/11/18 05:30 PST    3.19 -99.99 -999 -999 -999 -99.9 -99.9 -999.9 -9.9 -9.999 -99.9 -99.99 -9.99
2019/11/18 05:36 PST    3.24 -99.99 -999 -999 -999 -99.9 -99.9 -999.9 -9.9 -9.999 -99.9 -99.99 -9.99
2019/11/18 05:42 PST    3.29 -99.99 -999 -999 -999 -99.9 -99.9 -999.9 -9.9 -9.999 -99.9 -99.99 -9.99
2019/11/18 05:48 PST    3.34 -99.99 -999 -999 -999 -99.9 -99.9 -999.9 -9.9 -9.999 -99.9 -99.99 -9.99
2019/11/18 05:54 PST    3.38 -99.99 -999 -999 -999 -99.9 -99.9 -999.9 -9.9 -9.999 -99.9 -99.99 -9.99
2019/11/18 06:00 PST    3.43 -99.99 -999 -999 -999 -99.9 -99.9 -999.9 -9.9 -9.999 -99.9 -99.99 -9.99
2019/11/18 06:06 PST    3.47 -99.99 -999 -999 -999 -99.9 -99.9 -999.9 -9.9 -9.999 -99.9 -99.99 -9.99
2019/11/18 06:12 PST    3.50 -99.99 -999 -999 -999 -99.9 -99.9 -999.9 -9.9 -9.999 -99.9 -99.99 -9.99
2019/11/18 06:18 PST    3.54 -99.99 -999 -999 -999 -99.9 -99.9 -999.9 -9.9 -9.999 -99.9 -99.99 -9.99
2019/11/18 06:24 PST    3.57 -99.99 -999 -999 -999 -99.9 -99.9 -999.9 -9.9 -9.999 -99.9 -99.99 -9.99
2019/11/18 06:30 PST    3.60 -99.99 -999 -999 -999 -99.9 -99.9 -999.9 -9.9 -9.999 -99.9 -99.99 -9.99
2019/11/18 06:36 PST    3.62 -99.99 -999 -999 -999 -99.9 -99.9 -999.9 -9.9 -9.999 -99.9 -99.99 -9.99
2019/11/18 06:42 PST    3.65 -99.99 -999 -999 -999 -99.9 -99.9 -999.9 -9.9 -9.999 -99.9 -99.99 -9.99
2019/11/18 06:48 PST    3.67 -99.99 -999 -999 -999 -99.9 -99.9 -999.9 -9.9 -9.999 -99.9 -99.99 -9.99
2019/11/18 06:54 PST    3.68 -99.99 -999 -999 -999 -99.9 -99.9 -999.9 -9.9 -9.999 -99.9 -99.99 -9.99
2019/11/18 07:00 PST    3.69 -99.99 -999 -999 -999 -99.9 -99.9 -999.9 -9.9 -9.999 -99.9 -99.99 -9.99
2019/11/18 07:06 PST    3.70 -99.99 -999 -999 -999 -99.9 -99.9 -999.9 -9.9 -9.999 -99.9 -99.99 -9.99
2019/11/18 07:12 PST    3.70 -99.99 -999 -999 -999 -99.9 -99.9 -999.9 -9.9 -9.999 -99.9 -99.99 -9.99
2019/11/18 07:18 PST    3.71 -99.99 -999 -999 -999 -99.9 -99.9 -999.9 -9.9 -9.999 -99.9 -99.99 -9.99
2019/11/18 07:24 PST    3.70 -99.99 -999 -999 -999 -99.9 -99.9 -999.9 -9.9 -9.999 -99.9 -99.99 -9.99
2019/11/18 07:30 PST    3.69 -99.99 -999 -999 -999 -99.9 -99.9 -999.9 -9.9 -9.999 -99.9 -99.99 -9.99
2019/11/18 07:36 PST    3.68   4.16    3   98    3  51.4  58.8 1016.1 -9.9 -9.999 -99.9 -99.99 -9.99
2019/11/18 07:42 PST    3.67   4.15    0   85    2  52.2  58.8 1016.1 -9.9 -9.999 -99.9 -99.99 -9.99
2019/11/18 07:48 PST    3.65   4.14    1  112    1  52.0  58.8 1016.1 -9.9 -9.999 -99.9 -99.99 -9.99
2019/11/18 07:54 PST    3.63   4.13    1  110    1  52.2  58.8 1016.2 -9.9 -9.999 -99.9 -99.99 -9.99
2019/11/18 08:00 PST    3.60   4.12    0  154    1  53.6  58.8 1016.2 -9.9 -9.999 -99.9 -99.99 -9.99
2019/11/18 08:06 PST    3.57   4.10    1   94    1  53.6  58.8 1016.2 -9.9 -9.999 -99.9 -99.99 -9.99
2019/11/18 08:12 PST    3.54   4.08    0  103    1  54.1  58.8 1016.2 -9.9 -9.999 -99.9 -99.99 -9.99
2019/11/18 08:18 PST    3.50   4.04    1  179    1  53.8  58.8 1016.1 -9.9 -9.999 -99.9 -99.99 -9.99
2019/11/18 08:24 PST    3.46   4.01    1  134    1  54.5  58.8 1016.0 -9.9 -9.999 -99.9 -99.99 -9.99
2019/11/18 08:30 PST    3.42   3.99    1   97    1  54.9  58.8 1016.0 -9.9 -9.999 -99.9 -99.99 -9.99
2019/11/18 08:36 PST    3.37   3.94    1   84    2  55.0  58.6 1016.0 -9.9 -9.999 -99.9 -99.99 -9.99
2019/11/18 08:42 PST    3.32   3.91    2   71    3  54.5  58.8 1016.1 -9.9 -9.999 -99.9 -99.99 -9.99
2019/11/18 08:48 PST    3.27   3.88    2   66    3  54.5  58.8 1016.1 -9.9 -9.999 -99.9 -99.99 -9.99
2019/11/18 08:54 PST    3.22   3.84    3   62    4  54.5  58.8 1016.1 -9.9 -9.999 -99.9 -99.99 -9.99
2019/11/18 09:00 PST    3.17   3.79    3   45    4  54.3  58.6 1016.1 -9.9 -9.999 -99.9 -99.99 -9.99
2019/11/18 09:06 PST    3.11   3.73    3   52    4  54.5  58.6 1016.1 -9.9 -9.999 -99.9 -99.99 -9.99
2019/11/18 09:12 PST    3.05   3.69    3   50    4  54.5  58.6 1016.1 -9.9 -9.999 -99.9 -99.99 -9.99
2019/11/18 09:18 PST    3.00   3.63    3   55    4  54.5  58.6 1016.0 -9.9 -9.999 -99.9 -99.99 -9.99
2019/11/18 09:24 PST    2.94   3.58    3   71    4  54.5  58.8 1016.0 -9.9 -9.999 -99.9 -99.99 -9.99
2019/11/18 09:30 PST    2.88   3.53    3   71    3  54.9  58.8 1015.9 -9.9 -9.999 -99.9 -99.99 -9.99
2019/11/18 09:36 PST    2.82   3.44    2   70    3  55.0  58.8 1015.8 -9.9 -9.999 -99.9 -99.99 -9.99
2019/11/18 09:42 PST    2.76   3.38    3   54    3  55.4  58.8 1015.8 -9.9 -9.999 -99.9 -99.99 -9.99
2019/11/18 09:48 PST    2.71   3.33    3   54    4  55.4  58.8 1015.7 -9.9 -9.999 -99.9 -99.99 -9.99
2019/11/18 09:54 PST    2.65   3.28    4   48    4  55.2  58.8 1015.7 -9.9 -9.999 -99.9 -99.99 -9.99
2019/11/18 10:00 PST    2.59   3.23    4   48    5  55.2  58.8 1015.6 -9.9 -9.999 -99.9 -99.99 -9.99
2019/11/18 10:06 PST    2.54   3.15    4   45    5  55.2  58.8 1015.6 -9.9 -9.999 -99.9 -99.99 -9.99
2019/11/18 10:12 PST    2.49   3.11    4   51    4  55.4  58.8 1015.5 -9.9 -9.999 -99.9 -99.99 -9.99
2019/11/18 10:18 PST    2.44   3.05    4   67    5  56.1  59.0 1015.4 -9.9 -9.999 -99.9 -99.99 -9.99
2019/11/18 10:24 PST    2.39   2.99    4   60    4  56.5  59.0 1015.4 -9.9 -9.999 -99.9 -99.99 -9.99
2019/11/18 10:30 PST    2.34   2.94    3   71    4  56.8  58.8 1015.4 -9.9 -9.999 -99.9 -99.99 -9.99
2019/11/18 10:36 PST    2.30   2.88    3   63    4  57.0  58.8 1015.3 -9.9 -9.999 -99.9 -99.99 -9.99
2019/11/18 10:42 PST    2.25   2.84    3   57    4  57.2  58.8 1015.2 -9.9 -9.999 -99.9 -99.99 -9.99
2019/11/18 10:48 PST    2.22   2.80    3   52    4  57.4  58.8 1015.0 -9.9 -9.999 -99.9 -99.99 -9.99
2019/11/18 10:54 PST    2.18   2.76    3   65    4  57.7  58.8 1014.9 -9.9 -9.999 -99.9 -99.99 -9.99
2019/11/18 11:00 PST    2.15   2.73    5   56    7  59.0  58.8 1014.9 -9.9 -9.999 -99.9 -99.99 -9.99
2019/11/18 11:06 PST    2.12   2.70 -999 -999 -999 -99.9  58.8 -999.9 -9.9 -9.999 -99.9 -99.99 -9.99
2019/11/18 11:12 PST    2.09   2.67    5   43    5  59.2  58.8 1014.8 -9.9 -9.999 -99.9 -99.99 -9.99
2019/11/18 11:18 PST    2.06   2.66    5   49    5  59.4  58.8 1014.7 -9.9 -9.999 -99.9 -99.99 -9.99
2019/11/18 11:24 PST    2.04   2.63    5   38    5  59.5  58.8 1014.7 -9.9 -9.999 -99.9 -99.99 -9.99
2019/11/18 11:30 PST    2.02   2.62    4   33    5  59.9  58.8 1014.6 -9.9 -9.999 -99.9 -99.99 -9.99
2019/11/18 11:36 PST    2.01   2.60    4   40    4  60.1  59.2 1014.4 -9.9 -9.999 -99.9 -99.99 -9.99
2019/11/18 11:42 PST    2.00   2.59    4   38    4  59.9  59.2 1014.3 -9.9 -9.999 -99.9 -99.99 -9.99
2019/11/18 11:48 PST    1.99   2.58    4   27    5  60.4  59.2 1014.1 -9.9 -9.999 -99.9 -99.99 -9.99
2019/11/18 11:54 PST    1.98   2.58    4   25    5  60.8  59.2 1014.0 -9.9 -9.999 -99.9 -99.99 -9.99
2019/11/18 12:00 PST    1.98   2.59    4   24    5  61.2  59.2 1013.8 -9.9 -9.999 -99.9 -99.99 -9.99
2019/11/18 12:06 PST    1.98   2.59    4   20    4  61.5  59.2 1013.7 -9.9 -9.999 -99.9 -99.99 -9.99
2019/11/18 12:12 PST    1.99   2.60    4  356    4  61.9  59.2 1013.6 -9.9 -9.999 -99.9 -99.99 -9.99
2019/11/18 12:18 PST    1.99   2.62    4  339    5  61.2  59.5 1013.6 -9.9 -9.999 -99.9 -99.99 -9.99
2019/11/18 12:24 PST    2.00   2.65    4  350    5  62.2  59.5 1013.5 -9.9 -9.999 -99.9 -99.99 -9.99
2019/11/18 12:30 PST    2.02   2.69    4  353    5  62.2  59.7 1013.5 -9.9 -9.999 -99.9 -99.99 -9.99
2019/11/18 12:36 PST    2.03   2.70    4  356    5  62.8  59.7 1013.3 -9.9 -9.999 -99.9 -99.99 -9.99
2019/11/18 12:42 PST    2.05   2.73    4    1    5  63.0  59.9 1013.3 -9.9 -9.999 -99.9 -99.99 -9.99
2019/11/18 12:48 PST    2.08   2.77    4    2    5  63.3  59.9 1013.3 -9.9 -9.999 -99.9 -99.99 -9.99
2019/11/18 12:54 PST    2.10   2.81    3   47    4  63.9  60.1 1013.1 -9.9 -9.999 -99.9 -99.99 -9.99
2019/11/18 13:00 PST    2.14   2.85    4   50    4  64.8  60.1 1013.1 -9.9 -9.999 -99.9 -99.99 -9.99
2019/11/18 13:06 PST    2.17   2.89    4   62    5  65.5  60.1 1012.8 -9.9 -9.999 -99.9 -99.99 -9.99
2019/11/18 13:12 PST    2.21   2.95    4   47    5  65.3  60.1 1012.7 -9.9 -9.999 -99.9 -99.99 -9.99
2019/11/18 13:18 PST    2.25   3.01    5   53    5  65.8  60.1 1012.5 -9.9 -9.999 -99.9 -99.99 -9.99
2019/11/18 13:24 PST    2.29   3.06    5   51    6  66.4  60.1 1012.5 -9.9 -9.999 -99.9 -99.99 -9.99
2019/11/18 13:30 PST    2.34   3.13    5   53    6  66.2  60.1 1012.4 -9.9 -9.999 -99.9 -99.99 -9.99
2019/11/18 13:36 PST    2.40   3.19    5   64    6  66.7  59.9 1012.3 -9.9 -9.999 -99.9 -99.99 -9.99
2019/11/18 13:42 PST    2.45   3.26    6   66    8  67.6  59.9 1012.2 -9.9 -9.999 -99.9 -99.99 -9.99
2019/11/18 13:48 PST    2.51   3.31    5   56    6  67.1  59.9 1012.1 -9.9 -9.999 -99.9 -99.99 -9.99
2019/11/18 13:54 PST    2.57   3.37    5   55    6  66.9  59.9 1012.1 -9.9 -9.999 -99.9 -99.99 -9.99
2019/11/18 14:00 PST    2.64   3.44    5   65    6  67.5  59.9 1011.9 -9.9 -9.999 -99.9 -99.99 -9.99
2019/11/18 14:06 PST    2.71   3.50    6   80    8  70.0  59.9 1011.8 -9.9 -9.999 -99.9 -99.99 -9.99
2019/11/18 14:12 PST    2.78   3.57    6   78    8  70.3  59.9 1011.8 -9.9 -9.999 -99.9 -99.99 -9.99
2019/11/18 14:18 PST    2.86   3.65    6   74    7  70.5  59.9 1011.7 -9.9 -9.999 -99.9 -99.99 -9.99
2019/11/18 14:24 PST    2.93   3.65    6   72    7  70.2  60.1 1011.6 -9.9 -9.999 -99.9 -99.99 -9.99
2019/11/18 14:30 PST    3.01   3.75    6   73    7  70.3  60.1 1011.5 -9.9 -9.999 -99.9 -99.99 -9.99
2019/11/18 14:36 PST    3.09   3.81    6   70    7  70.3  60.3 1011.4 -9.9 -9.999 -99.9 -99.99 -9.99
2019/11/18 14:42 PST    3.17   3.87    5   67    6  70.5  60.3 1011.3 -9.9 -9.999 -99.9 -99.99 -9.99
2019/11/18 14:48 PST    3.26   3.94    6   73    7  70.7  60.3 1011.2 -9.9 -9.999 -99.9 -99.99 -9.99
2019/11/18 14:54 PST    3.34   3.98    6   78    7  70.7  60.3 1011.1 -9.9 -9.999 -99.9 -99.99 -9.99
2019/11/18 15:00 PST    3.42   4.07    6   67    6  70.2  60.3 1011.0 -9.9 -9.999 -99.9 -99.99 -9.99
2019/11/18 15:06 PST    3.51   4.14    6   70    7  70.7  60.1 1010.9 -9.9 -9.999 -99.9 -99.99 -9.99
2019/11/18 15:12 PST    3.59   4.20    6   70    7  70.9  60.1 1010.8 -9.9 -9.999 -99.9 -99.99 -9.99
2019/11/18 15:18 PST    3.67   4.26    5   65    6  71.2  59.9 1010.7 -9.9 -9.999 -99.9 -99.99 -9.99
2019/11/18 15:24 PST    3.75   4.31    5   58    7  70.7  59.9 1010.6 -9.9 -9.999 -99.9 -99.99 -9.99
2019/11/18 15:30 PST    3.83   4.36    6   60    6  69.8  59.7 1010.6 -9.9 -9.999 -99.9 -99.99 -9.99
2019/11/18 15:36 PST    3.91   4.42    5   47    6  69.6  59.7 1010.7 -9.9 -9.999 -99.9 -99.99 -9.99
2019/11/18 15:42 PST    3.98   4.47    5   47    6  70.5  59.7 1010.7 -9.9 -9.999 -99.9 -99.99 -9.99
2019/11/18 15:48 PST    4.05   4.52    4   32    5  69.4  59.7 1010.7 -9.9 -9.999 -99.9 -99.99 -9.99
2019/11/18 15:54 PST    4.12   4.56    3  327    4  68.4  59.7 1010.8 -9.9 -9.999 -99.9 -99.99 -9.99
2019/11/18 16:00 PST    4.18   4.61    3  323    4  67.3  59.7 1010.8 -9.9 -9.999 -99.9 -99.99 -9.99
2019/11/18 16:06 PST    4.24   4.64    3  317    4  66.7  59.7 1010.7 -9.9 -9.999 -99.9 -99.99 -9.99
2019/11/18 16:12 PST    4.29   4.67    3  324    4  68.0  59.5 1010.6 -9.9 -9.999 -99.9 -99.99 -9.99
2019/11/18 16:18 PST    4.34   4.70    4  336    4  68.7  59.5 1010.6 -9.9 -9.999 -99.9 -99.99 -9.99
2019/11/18 16:24 PST    4.38   4.73    4  333    5  68.9  59.5 1010.6 -9.9 -9.999 -99.9 -99.99 -9.99
2019/11/18 16:30 PST    4.42   4.75    4  335    5  69.4  59.5 1010.5 -9.9 -9.999 -99.9 -99.99 -9.99
2019/11/18 16:36 PST    4.46   4.78    4  334    5  69.6  59.7 1010.4 -9.9 -9.999 -99.9 -99.99 -9.99
2019/11/18 16:42 PST    4.49   4.80    4  343    4  69.4  59.7 1010.4 -9.9 -9.999 -99.9 -99.99 -9.99
2019/11/18 16:48 PST    4.51   4.82    5  339    5  69.3  59.7 1010.4 -9.9 -9.999 -99.9 -99.99 -9.99
2019/11/18 16:54 PST    4.53   4.84    4  335    4  68.4  59.7 1010.3 -9.9 -9.999 -99.9 -99.99 -9.99
2019/11/18 17:00 PST    4.54   4.85    1  238    4  65.8  59.7 1010.2 -9.9 -9.999 -99.9 -99.99 -9.99
2019/11/18 17:06 PST    4.55   4.85    2  171    2  66.0  59.7 1010.2 -9.9 -9.999 -99.9 -99.99 -9.99
2019/11/18 17:12 PST    4.56   4.85    3  139    3  66.2  59.7 1010.1 -9.9 -9.999 -99.9 -99.99 -9.99
2019/11/18 17:18 PST    4.56   4.85    1  106    3  66.6  59.7 1010.2 -9.9 -9.999 -99.9 -99.99 -9.99
2019/11/18 17:24 PST    4.55   4.85    0  106    1  66.6  59.7 1010.2 -9.9 -9.999 -99.9 -99.99 -9.99
2019/11/18 17:30 PST    4.54   4.84    0  106    0  66.6  59.7 1010.2 -9.9 -9.999 -99.9 -99.99 -9.99
2019/11/18 17:36 PST    4.53   4.83    1  354    1  66.6  59.7 1010.3 -9.9 -9.999 -99.9 -99.99 -9.99
2019/11/18 17:42 PST    4.51   4.81    2  299    3  66.0  59.7 1010.3 -9.9 -9.999 -99.9 -99.99 -9.99
2019/11/18 17:48 PST    4.49   4.80    3  294    4  64.9  59.7 1010.3 -9.9 -9.999 -99.9 -99.99 -9.99
2019/11/18 17:54 PST    4.46   4.78    2  282    3  64.8  59.7 1010.3 -9.9 -9.999 -99.9 -99.99 -9.99
2019/11/18 18:00 PST    4.43   4.76    3  284    4  64.8  59.7 1010.4 -9.9 -9.999 -99.9 -99.99 -9.99
2019/11/18 18:06 PST    4.40   4.72    3  280    4  64.8  59.7 1010.4 -9.9 -9.999 -99.9 -99.99 -9.99
2019/11/18 18:12 PST    4.36   4.69    1  258    2  64.6  59.7 1010.4 -9.9 -9.999 -99.9 -99.99 -9.99
2019/11/18 18:18 PST    4.32   4.66    1  172    2  63.7  59.7 1010.3 -9.9 -9.999 -99.9 -99.99 -9.99
2019/11/18 18:24 PST    4.28   4.61    2  202    4  63.3  59.7 1010.4 -9.9 -9.999 -99.9 -99.99 -9.99
2019/11/18 18:30 PST    4.23   4.57    4  223    5  63.0  59.7 1010.4 -9.9 -9.999 -99.9 -99.99 -9.99
2019/11/18 18:36 PST    4.18   4.51    3  216    5  62.8  59.7 1010.4 -9.9 -9.999 -99.9 -99.99 -9.99
2019/11/18 18:42 PST    4.13   4.46    4  196    5  63.0  59.7 1010.4 -9.9 -9.999 -99.9 -99.99 -9.99
2019/11/18 18:48 PST    4.07   4.40    6  192    7  64.0  59.7 1010.4 -9.9 -9.999 -99.9 -99.99 -9.99
2019/11/18 18:54 PST    4.01   4.34    3  201    6  63.3  59.7 1010.3 -9.9 -9.999 -99.9 -99.99 -9.99
2019/11/18 19:00 PST    3.95   4.27    7  188    8  63.5  59.7 1010.3 -9.9 -9.999 -99.9 -99.99 -9.99
2019/11/18 19:06 PST    3.88   4.19    6  189    8  62.8  59.7 1010.3 -9.9 -9.999 -99.9 -99.99 -9.99
2019/11/18 19:12 PST    3.82   4.12    6  190    7  64.4  59.7 1010.3 -9.9 -9.999 -99.9 -99.99 -9.99
2019/11/18 19:18 PST    3.75   4.04    7  188    7  64.6  59.7 1010.4 -9.9 -9.999 -99.9 -99.99 -9.99
2019/11/18 19:24 PST    3.67   3.95    7  191    7  63.9  59.7 1010.4 -9.9 -9.999 -99.9 -99.99 -9.99
2019/11/18 19:30 PST    3.60   3.87    6  184    7  63.7  59.7 1010.3 -9.9 -9.999 -99.9 -99.99 -9.99
2019/11/18 19:36 PST    3.52   3.77    6  186    8  63.3  59.7 1010.2 -9.9 -9.999 -99.9 -99.99 -9.99
2019/11/18 19:42 PST    3.44   3.69    7  186    8  63.1  59.7 1010.1 -9.9 -9.999 -99.9 -99.99 -9.99
2019/11/18 19:48 PST    3.36   3.60    8  185    8  63.9  59.7 1010.0 -9.9 -9.999 -99.9 -99.99 -9.99
2019/11/18 19:54 PST    3.27   3.51    7  189    8  63.9  59.7 1010.0 -9.9 -9.999 -99.9 -99.99 -9.99
2019/11/18 20:00 PST    3.19   3.41    7  187    8  63.0  59.7 1009.9 -9.9 -9.999 -99.9 -99.99 -9.99
2019/11/18 20:06 PST    3.10   3.32    6  187    8  62.6  59.7 1009.9 -9.9 -9.999 -99.9 -99.99 -9.99
2019/11/18 20:12 PST    3.01   3.23    8  191    9  63.5  59.7 1009.9 -9.9 -9.999 -99.9 -99.99 -9.99
2019/11/18 20:18 PST    2.92   3.14    5  209    8  61.0  59.7 1010.0 -9.9 -9.999 -99.9 -99.99 -9.99
2019/11/18 20:24 PST    2.83   3.05    7  225    7  59.4  59.7 1010.0 -9.9 -9.999 -99.9 -99.99 -9.99
2019/11/18 20:30 PST    2.73   2.95    7  234    8  57.7  59.7 1010.0 -9.9 -9.999 -99.9 -99.99 -9.99
2019/11/18 20:36 PST    2.64   2.87    6  248    8  57.9  59.7 1010.1 -9.9 -9.999 -99.9 -99.99 -9.99
2019/11/18 20:42 PST    2.54   2.78    5  241    6  58.8  59.7 1010.2 -9.9 -9.999 -99.9 -99.99 -9.99
2019/11/18 20:48 PST    2.44   2.68    7  227    8  61.2  59.7 1010.2 -9.9 -9.999 -99.9 -99.99 -9.99
2019/11/18 20:54 PST    2.35   2.58    3  210    8  61.3  59.5 1010.2 -9.9 -9.999 -99.9 -99.99 -9.99
2019/11/18 21:00 PST    2.25   2.50    3  212    4  62.1  59.5 1010.2 -9.9 -9.999 -99.9 -99.99 -9.99
2019/11/18 21:06 PST    2.15   2.42    3  207    5  61.3  59.5 1010.1 -9.9 -9.999 -99.9 -99.99 -9.99
2019/11/18 21:12 PST    2.06   2.34    4  223    6  61.0  59.5 1010.2 -9.9 -9.999 -99.9 -99.99 -9.99
2019/11/18 21:18 PST    1.96   2.27    5  236    7  60.1  59.5 1010.2 -9.9 -9.999 -99.9 -99.99 -9.99
2019/11/18 21:24 PST    1.86   2.19    6  232    7  58.5  59.5 1010.2 -9.9 -9.999 -99.9 -99.99 -9.99
2019/11/18 21:30 PST    1.77   2.10    6  226    8  58.3  59.5 1010.0 -9.9 -9.999 -99.9 -99.99 -9.99
2019/11/18 21:36 PST    1.68   2.03    4  216    8  58.5  59.5 1009.9 -9.9 -9.999 -99.9 -99.99 -9.99
2019/11/18 21:42 PST    1.58   1.96    4  203    6  58.5  59.5 1009.9 -9.9 -9.999 -99.9 -99.99 -9.99
2019/11/18 21:48 PST    1.49   1.87    6  222    7  58.6  59.5 1010.1 -9.9 -9.999 -99.9 -99.99 -9.99
2019/11/18 21:54 PST    1.40   1.80    5  221    8  58.3  59.5 1010.0 -9.9 -9.999 -99.9 -99.99 -9.99
2019/11/18 22:00 PST    1.32   1.72    6  222    8  58.5  59.4 1009.9 -9.9 -9.999 -99.9 -99.99 -9.99
2019/11/18 22:06 PST    1.23   1.67    4  201    7  57.6  59.4 1009.8 -9.9 -9.999 -99.9 -99.99 -9.99
2019/11/18 22:12 PST    1.15   1.62    5  190    6  56.5  59.4 1009.8 -9.9 -9.999 -99.9 -99.99 -9.99
2019/11/18 22:18 PST    1.07   1.55    5  217    6  57.6  59.4 1009.8 -9.9 -9.999 -99.9 -99.99 -9.99
2019/11/18 22:24 PST    0.99   1.47    4  214    8  59.0  59.4 1009.6 -9.9 -9.999 -99.9 -99.99 -9.99
2019/11/18 22:30 PST    0.92   1.41    4  216    6  58.3  59.4 1009.5 -9.9 -9.999 -99.9 -99.99 -9.99
2019/11/18 22:36 PST    0.85   1.36    4  204    8  57.0  59.4 1009.4 -9.9 -9.999 -99.9 -99.99 -9.99
2019/11/18 22:42 PST    0.78   1.30    6  219    8  57.9  59.4 1009.4 -9.9 -9.999 -99.9 -99.99 -9.99
2019/11/18 22:48 PST    0.71   1.25    4  212    7  57.9  59.4 1009.4 -9.9 -9.999 -99.9 -99.99 -9.99
2019/11/18 22:54 PST    0.65   1.19    5  218    7  57.7  59.4 1009.4 -9.9 -9.999 -99.9 -99.99 -9.99
2019/11/18 23:00 PST    0.59   1.13    8  222    9  57.4  59.4 1009.4 -9.9 -9.999 -99.9 -99.99 -9.99
2019/11/18 23:06 PST    0.53   1.08    6  220    9  57.2  59.2 1009.4 -9.9 -9.999 -99.9 -99.99 -9.99
2019/11/18 23:12 PST    0.48   1.03    5  215    8  57.2  59.2 1009.4 -9.9 -9.999 -99.9 -99.99 -9.99
2019/11/18 23:18 PST    0.43   0.98    7  237    8  56.8  59.2 1009.5 -9.9 -9.999 -99.9 -99.99 -9.99
2019/11/18 23:24 PST    0.38   0.92    3  240    7  56.7  59.2 1009.5 -9.9 -9.999 -99.9 -99.99 -9.99
2019/11/18 23:30 PST    0.33   0.86    5  234    7  56.8  59.2 1009.4 -9.9 -9.999 -99.9 -99.99 -9.99
2019/11/18 23:36 PST    0.29   0.81    6  227    9  57.7  59.2 1009.3 -9.9 -9.999 -99.9 -99.99 -9.99
2019/11/18 23:42 PST    0.25   0.76    5  243    7  56.8  59.2 1009.2 -9.9 -9.999 -99.9 -99.99 -9.99
2019/11/18 23:48 PST    0.22   0.72    6  245    8  57.2  59.2 1009.3 -9.9 -9.999 -99.9 -99.99 -9.99
2019/11/18 23:54 PST    0.18   0.68    8  262   11  58.3  59.2 1009.1 -9.9 -9.999 -99.9 -99.99 -9.99
2019/11/19 00:00 PST    0.15   0.64    8  261    9  58.1  59.2 1009.1 -9.9 -9.999 -99.9 -99.99 -9.99
2019/11/19 00:06 PST    0.12   0.60    9  257   13  57.7  59.2 1008.9 -9.9 -9.999 -99.9 -99.99 -9.99
2019/11/19 00:12 PST    0.10   0.57   11  252   12  57.7  59.0 1009.0 -9.9 -9.999 -99.9 -99.99 -9.99
2019/11/19 00:18 PST    0.07   0.52    6  247   12  57.9  59.0 1009.1 -9.9 -9.999 -99.9 -99.99 -9.99
2019/11/19 00:24 PST    0.05   0.48    4  197    8  55.8  59.0 1009.0 -9.9 -9.999 -99.9 -99.99 -9.99
2019/11/19 00:30 PST    0.03   0.43   11  251   13  57.9  59.0 1008.9 -9.9 -9.999 -99.9 -99.99 -9.99
2019/11/19 00:36 PST    0.02   0.38   11  255   14  58.3  59.0 1008.9 -9.9 -9.999 -99.9 -99.99 -9.99
2019/11/19 00:42 PST    0.00   0.33    8  253   11  58.1  58.8 1009.0 -9.9 -9.999 -99.9 -99.99 -9.99
2019/11/19 00:48 PST   -0.01   0.30    6  239    8  57.0  58.8 1009.0 -9.9 -9.999 -99.9 -99.99 -9.99
2019/11/19 00:54 PST   -0.02   0.27    3  197    6  56.3  58.8 1008.9 -9.9 -9.999 -99.9 -99.99 -9.99
2019/11/19 01:00 PST   -0.02   0.26    4  190    5  55.2  58.8 1009.0 -9.9 -9.999 -99.9 -99.99 -9.99
2019/11/19 01:06 PST   -0.02   0.23    4  223    5  54.7  58.8 1009.1 -9.9 -9.999 -99.9 -99.99 -9.99
2019/11/19 01:12 PST   -0.02   0.21    5  233    6  55.6  58.8 1009.2 -9.9 -9.999 -99.9 -99.99 -9.99
2019/11/19 01:18 PST   -0.02   0.18    7  245    8  57.7  58.8 1009.1 -9.9 -9.999 -99.9 -99.99 -9.99
2019/11/19 01:24 PST   -0.02   0.16    8  234   10  57.9  58.8 1008.9 -9.9 -9.999 -99.9 -99.99 -9.99
2019/11/19 01:30 PST   -0.01   0.16    7  221   10  57.6  58.8 1008.8 -9.9 -9.999 -99.9 -99.99 -9.99
2019/11/19 01:36 PST    0.01   0.16    6  217    9  57.7  58.8 1008.8 -9.9 -9.999 -99.9 -99.99 -9.99
2019/11/19 01:42 PST    0.02   0.18    6  220    8  57.7  58.8 1008.8 -9.9 -9.999 -99.9 -99.99 -9.99
2019/11/19 01:48 PST    0.04   0.20    4  206    9  57.0  58.6 1008.8 -9.9 -9.999 -99.9 -99.99 -9.99
2019/11/19 01:54 PST    0.06   0.23    3  213    4  56.3  58.6 1008.7 -9.9 -9.999 -99.9 -99.99 -9.99
2019/11/19 02:00 PST    0.09   0.25    5  218    7  56.1  58.6 1008.6 -9.9 -9.999 -99.9 -99.99 -9.99
2019/11/19 02:06 PST    0.12   0.28    4  210    8  55.8  58.6 1008.5 -9.9 -9.999 -99.9 -99.99 -9.99
2019/11/19 02:12 PST    0.16   0.32    5  214   10  56.7  58.6 1008.5 -9.9 -9.999 -99.9 -99.99 -9.99
2019/11/19 02:18 PST    0.19   0.37    7  215    9  58.5  58.6 1008.6 -9.9 -9.999 -99.9 -99.99 -9.99
2019/11/19 02:24 PST    0.24   0.43   11  223   13  58.5  58.6 1008.5 -9.9 -9.999 -99.9 -99.99 -9.99
2019/11/19 02:30 PST    0.28   0.48    9  228   12  56.8  58.6 1008.5 -9.9 -9.999 -99.9 -99.99 -9.99
2019/11/19 02:36 PST    0.34   0.55    9  231   11  56.1  58.6 1008.6 -9.9 -9.999 -99.9 -99.99 -9.99
2019/11/19 02:42 PST    0.39   0.62    7  220    9  56.5  58.6 1008.4 -9.9 -9.999 -99.9 -99.99 -9.99
2019/11/19 02:48 PST    0.45   0.69    4  210    7  56.1  58.6 1008.3 -9.9 -9.999 -99.9 -99.99 -9.99
2019/11/19 02:54 PST    0.51   0.77    7  217    9  57.0  58.6 1008.4 -9.9 -9.999 -99.9 -99.99 -9.99
2019/11/19 03:00 PST    0.58   0.85    6  214   10  56.5  58.6 1008.3 -9.9 -9.999 -99.9 -99.99 -9.99
2019/11/19 03:06 PST    0.65   0.95    9  229   12  57.9  58.6 1008.3 -9.9 -9.999 -99.9 -99.99 -9.99
2019/11/19 03:12 PST    0.72   1.04   12  237   14  59.0  58.6 1008.2 -9.9 -9.999 -99.9 -99.99 -9.99
2019/11/19 03:18 PST    0.80   1.15   13  235   15  59.4  58.6 1008.2 -9.9 -9.999 -99.9 -99.99 -9.99
2019/11/19 03:24 PST    0.88   1.25   13  235   17  60.3  58.6 1008.2 -9.9 -9.999 -99.9 -99.99 -9.99
2019/11/19 03:30 PST    0.96   1.36   13  231   17  60.1  58.6 1008.3 -9.9 -9.999 -99.9 -99.99 -9.99
2019/11/19 03:36 PST    1.04   1.47   12  231   17  59.4  58.5 1008.4 -9.9 -9.999 -99.9 -99.99 -9.99
2019/11/19 03:42 PST    1.13   1.58   11  232   16  59.7  58.6 1008.3 -9.9 -9.999 -99.9 -99.99 -9.99
2019/11/19 03:48 PST    1.21   1.69   11  233   14  59.7  58.6 1008.3 -9.9 -9.999 -99.9 -99.99 -9.99
2019/11/19 03:54 PST    1.30   1.80   12  234   15  59.7  58.6 1008.3 -9.9 -9.999 -99.9 -99.99 -9.99
2019/11/19 04:00 PST    1.39   1.89   10  240   14  59.5  58.6 1008.2 -9.9 -9.999 -99.9 -99.99 -9.99
2019/11/19 04:06 PST    1.48   2.01   10  238   14  59.2  58.6 1008.2 -9.9 -9.999 -99.9 -99.99 -9.99
2019/11/19 04:12 PST    1.57   2.10   10  233   15  59.0  58.6 1008.2 -9.9 -9.999 -99.9 -99.99 -9.99
2019/11/19 04:18 PST    1.66   2.21    7  227   11  59.0  58.6 1008.2 -9.9 -9.999 -99.9 -99.99 -9.99
2019/11/19 04:24 PST    1.75   2.32    8  228   11  59.0  58.6 1008.2 -9.9 -9.999 -99.9 -99.99 -9.99
2019/11/19 04:30 PST    1.84   2.42    7  219   10  59.2  58.6 1008.1 -9.9 -9.999 -99.9 -99.99 -9.99
2019/11/19 04:36 PST    1.93   2.54    8  230   12  59.0  58.6 1008.1 -9.9 -9.999 -99.9 -99.99 -9.99
2019/11/19 04:42 PST    2.01   2.64   10  240   12  59.0  58.6 1008.1 -9.9 -9.999 -99.9 -99.99 -9.99
2019/11/19 04:48 PST    2.10   2.73   10  250   12  59.2  58.6 1008.0 -9.9 -9.999 -99.9 -99.99 -9.99
2019/11/19 04:54 PST    2.19   2.82   10  260   13  59.2  58.6 1007.9 -9.9 -9.999 -99.9 -99.99 -9.99
2019/11/19 05:00 PST    2.27   2.91    8  259   11  58.8  58.6 1007.8 -9.9 -9.999 -99.9 -99.99 -9.99
2019/11/19 05:06 PST    2.35   3.00    7  264   10  59.0  58.6 1007.7 -9.9 -9.999 -99.9 -99.99 -9.99
2019/11/19 05:12 PST    2.43   3.08    6  267    8  58.8  58.6 1007.6 -9.9 -9.999 -99.9 -99.99 -9.99
2019/11/19 05:18 PST    2.51   3.17    5  266    7  59.0  58.6 1007.6 -9.9 -9.999 -99.9 -99.99 -9.99
2019/11/19 05:24 PST    2.59   3.24    6  235    8  58.8  58.6 1007.6 -9.9 -9.999 -99.9 -99.99 -9.99
2019/11/19 05:30 PST    2.66   3.31    7  236    9  59.2  58.5 1007.5 -9.9 -9.999 -99.9 -99.99 -9.99
2019/11/19 05:36 PST    2.74   3.39    8  240    9  58.8  58.6 1007.4 -9.9 -9.999 -99.9 -99.99 -9.99
2019/11/19 05:42 PST    2.81   3.46    8  241   10  58.6  58.6 1007.5 -9.9 -9.999 -99.9 -99.99 -9.99
2019/11/19 05:48 PST    2.88   3.53    9  243   10  59.0  58.6 1007.7 -9.9 -9.999 -99.9 -99.99 -9.99
2019/11/19 05:54 PST    2.95   3.59    6  240    9  58.5  58.6 1007.7 -9.9 -9.999 -99.9 -99.99 -9.99
2019/11/19 06:00 PST    3.01   3.65    6  261    8  58.6  58.6 1007.8 -9.9 -9.999 -99.9 -99.99 -9.99
2019/11/19 06:06 PST    3.08   3.71    6  250    8  58.3  58.6 1007.6 -9.9 -9.999 -99.9 -99.99 -9.99
2019/11/19 06:12 PST    3.14   3.77   13  245   15  58.3  58.6 1007.3 -9.9 -9.999 -99.9 -99.99 -9.99
2019/11/19 06:18 PST    3.20   3.84   17  237   18  58.6  58.6 1007.4 -9.9 -9.999 -99.9 -99.99 -9.99
2019/11/19 06:24 PST    3.26   3.89   13  243   18  58.5  58.6 1007.3 -9.9 -9.999 -99.9 -99.99 -9.99
2019/11/19 06:30 PST    3.31   3.93    9  247   13  58.1  58.6 1007.4 -9.9 -9.999 -99.9 -99.99 -9.99
2019/11/19 06:36 PST    3.37   3.98    6  251   10  58.5  58.6 1007.4 -9.9 -9.999 -99.9 -99.99 -9.99
2019/11/19 06:42 PST    3.42   4.03    4  244    7  58.5  58.6 1007.6 -9.9 -9.999 -99.9 -99.99 -9.99
2019/11/19 06:48 PST    3.47   4.06    2  122    5  57.4  58.6 1007.8 -9.9 -9.999 -99.9 -99.99 -9.99
2019/11/19 06:54 PST    3.52   4.09    1  199    4  57.7  58.6 1008.0 -9.9 -9.999 -99.9 -99.99 -9.99
2019/11/19 07:00 PST    3.56   4.12    6  234    9  58.1  58.8 1008.0 -9.9 -9.999 -99.9 -99.99 -9.99
2019/11/19 07:06 PST    3.60   4.14    5  220   11  57.6  58.6 1007.9 -9.9 -9.999 -99.9 -99.99 -9.99
2019/11/19 07:12 PST    3.64   4.18    7  216   12  57.6  58.8 1008.0 -9.9 -9.999 -99.9 -99.99 -9.99
2019/11/19 07:18 PST    3.67   4.22    8  216   11  57.2  58.8 1007.9 -9.9 -9.999 -99.9 -99.99 -9.99
2019/11/19 07:24 PST    3.71   4.25    9  223   14  57.2  58.8 1008.0 -9.9 -9.999 -99.9 -99.99 -9.99
2019/11/19 07:30 PST    3.73   4.27    9  218   13  57.2  58.8 1007.9 -9.9 -9.999 -99.9 -99.99 -9.99
2019/11/19 07:36 PST    3.76   4.32   12  233   19  56.8  58.8 1008.0 -9.9 -9.999 -99.9 -99.99 -9.99
2019/11/19 07:42 PST    3.78   4.34   13  231   18  56.8  58.8 1008.0 -9.9 -9.999 -99.9 -99.99 -9.99
2019/11/19 07:48 PST    3.80   4.36   12  229   17  56.7  58.8 1007.9 -9.9 -9.999 -99.9 -99.99 -9.99
2019/11/19 07:54 PST    3.81   4.37   14  237   18  56.8  58.8 1008.0 -9.9 -9.999 -99.9 -99.99 -9.99
2019/11/19 08:00 PST    3.82   4.39   13  230   17  56.8  58.8 1008.0 -9.9 -9.999 -99.9 -99.99 -9.99
2019/11/19 08:06 PST    3.83   4.43   13  236   18  56.7  58.8 1008.2 -9.9 -9.999 -99.9 -99.99 -9.99
2019/11/19 08:12 PST    3.83   4.44   11  234   16  56.7  58.8 1008.2 -9.9 -9.999 -99.9 -99.99 -9.99
2019/11/19 08:18 PST    3.82   4.44   14  237   17  56.7  58.8 1008.2 -9.9 -9.999 -99.9 -99.99 -9.99
2019/11/19 08:24 PST    3.82   4.44   14  240   18  56.8  58.8 1008.3 -9.9 -9.999 -99.9 -99.99 -9.99
2019/11/19 08:30 PST    3.80   4.44   14  245   18  57.2  58.8 1008.2 -9.9 -9.999 -99.9 -99.99 -9.99
2019/11/19 08:36 PST    3.79   4.44   16  247   19  57.2  58.8 1008.2 -9.9 -9.999 -99.9 -99.99 -9.99
2019/11/19 08:42 PST    3.77   4.43   15  242   19  57.0  58.8 1008.2 -9.9 -9.999 -99.9 -99.99 -9.99
2019/11/19 08:48 PST    3.74   4.44   13  240   18  57.2  58.8 1008.3 -9.9 -9.999 -99.9 -99.99 -9.99
2019/11/19 08:54 PST    3.72   4.42   12  242   18  57.4  58.8 1008.4 -9.9 -9.999 -99.9 -99.99 -9.99
2019/11/19 09:00 PST    3.68   4.41   14  237   18  57.4  58.8 1008.4 -9.9 -9.999 -99.9 -99.99 -9.99
2019/11/19 09:06 PST    3.65   4.41   12  238   18  57.6  58.8 1008.3 -9.9 -9.999 -99.9 -99.99 -9.99
2019/11/19 09:12 PST    3.61   4.36   13  246   18  57.7  58.8 1008.4 -9.9 -9.999 -99.9 -99.99 -9.99
2019/11/19 09:18 PST    3.57   4.32   11  253   18  57.9  58.8 1008.6 -9.9 -9.999 -99.9 -99.99 -9.99
2019/11/19 09:24 PST    3.52   4.29   12  256   15  57.9  58.8 1008.8 -9.9 -9.999 -99.9 -99.99 -9.99
2019/11/19 09:30 PST    3.47   4.25    9  253   13  58.3  58.8 1008.9 -9.9 -9.999 -99.9 -99.99 -9.99
2019/11/19 09:36 PST    3.42   4.20    9  257   11  58.5  58.8 1008.9 -9.9 -9.999 -99.9 -99.99 -9.99
2019/11/19 09:42 PST    3.36   4.17   12  257   16  58.6  58.8 1008.8 -9.9 -9.999 -99.9 -99.99 -9.99
2019/11/19 09:48 PST    3.31   4.13   13  259   18  58.8  58.8 1008.8 -9.9 -9.999 -99.9 -99.99 -9.99
2019/11/19 09:54 PST    3.25   4.07   13  261   16  59.0  58.8 1008.7 -9.9 -9.999 -99.9 -99.99 -9.99
2019/11/19 10:00 PST    3.19   4.01   14  260   18  59.2  58.8 1008.6 -9.9 -9.999 -99.9 -99.99 -9.99
2019/11/19 10:06 PST    3.13   3.95   14  266   18  59.4  58.8 1008.5 -9.9 -9.999 -99.9 -99.99 -9.99
2019/11/19 10:12 PST    3.06   3.89   14  260   18  59.5  58.8 1008.4 -9.9 -9.999 -99.9 -99.99 -9.99
2019/11/19 10:18 PST    3.00   3.82   14  256   18  59.5  58.8 1008.3 -9.9 -9.999 -99.9 -99.99 -9.99
2019/11/19 10:24 PST    2.94   3.75   16  256   19  59.9  58.8 1008.2 -9.9 -9.999 -99.9 -99.99 -9.99
2019/11/19 10:30 PST    2.87   3.70   16  250   20  59.5  58.8 1008.3 -9.9 -9.999 -99.9 -99.99 -9.99
2019/11/19 10:36 PST    2.81   3.63   13  250   18  59.9  58.8 1008.3 -9.9 -9.999 -99.9 -99.99 -9.99
2019/11/19 10:42 PST    2.75   3.57   14  254   18  59.9  58.8 1008.0 -9.9 -9.999 -99.9 -99.99 -9.99
2019/11/19 10:48 PST    2.68   3.50   14  253   17  60.1  58.8 1008.0 -9.9 -9.999 -99.9 -99.99 -9.99
2019/11/19 10:54 PST    2.62   3.44   14  251   17  60.1  58.8 1008.0 -9.9 -9.999 -99.9 -99.99 -9.99
2019/11/19 11:00 PST    2.56   3.38   13  253   17  60.3  58.8 1007.9 -9.9 -9.999 -99.9 -99.99 -9.99
2019/11/19 11:06 PST    2.50   3.32   14  253   17  60.3  58.8 1007.6 -9.9 -9.999 -99.9 -99.99 -9.99
2019/11/19 11:12 PST    2.44   3.26   12  252   17  60.4  59.0 1007.5 -9.9 -9.999 -99.9 -99.99 -9.99
2019/11/19 11:18 PST    2.38   3.20   13  254   16  60.6  59.0 1007.4 -9.9 -9.999 -99.9 -99.99 -9.99
2019/11/19 11:24 PST    2.33   3.13   14  255   16  60.8  59.0 1007.3 -9.9 -9.999 -99.9 -99.99 -9.99
2019/11/19 11:30 PST    2.28   3.07   14  253   16  60.8  59.0 1007.2 -9.9 -9.999 -99.9 -99.99 -9.99
2019/11/19 11:36 PST    2.23   3.02   13  248   15  61.0  59.0 1007.0 -9.9 -9.999 -99.9 -99.99 -9.99
2019/11/19 11:42 PST    2.18   2.97   11  256   14  61.5  59.0 1007.2 -9.9 -9.999 -99.9 -99.99 -9.99
2019/11/19 11:48 PST    2.13   2.91   11  251   15  61.5  59.2 1007.1 -9.9 -9.999 -99.9 -99.99 -9.99
2019/11/19 11:54 PST    2.09   2.87   13  251   17  61.7  59.2 1007.0 -9.9 -9.999 -99.9 -99.99 -9.99
2019/11/19 12:00 PST    2.05   2.83   14  247   17  62.1  59.2 1006.9 -9.9 -9.999 -99.9 -99.99 -9.99
2019/11/19 12:06 PST    2.01   2.78   13  246   16  62.4  59.2 1006.7 -9.9 -9.999 -99.9 -99.99 -9.99
2019/11/19 12:12 PST    1.98   2.74   13  254   16  62.6  59.2 1006.7 -9.9 -9.999 -99.9 -99.99 -9.99
2019/11/19 12:18 PST    1.94   2.71   13  257   17  62.6  59.4 1006.6 -9.9 -9.999 -99.9 -99.99 -9.99
2019/11/19 12:24 PST    1.91   2.69   14  254   18  62.8  59.4 1006.4 -9.9 -9.999 -99.9 -99.99 -9.99
2019/11/19 12:30 PST    1.89   2.67   15  252   19  62.8  59.4 1006.4 -9.9 -9.999 -99.9 -99.99 -9.99
2019/11/19 12:36 PST    1.86   2.65   15  252   18  63.0  59.4 1006.3 -9.9 -9.999 -99.9 -99.99 -9.99
2019/11/19 12:42 PST    1.84   2.61   15  250   18  63.0  59.4 1006.2 -9.9 -9.999 -99.9 -99.99 -9.99
2019/11/19 12:48 PST    1.82   2.59   13  255   18  63.1  59.4 1006.1 -9.9 -9.999 -99.9 -99.99 -9.99
2019/11/19 12:54 PST    1.81   2.58   14  258   17  63.3  59.4 1006.2 -9.9 -9.999 -99.9 -99.99 -9.99
2019/11/19 13:00 PST    1.80   2.58   15  251   17  63.1  59.5 1006.0 -9.9 -9.999 -99.9 -99.99 -9.99
2019/11/19 13:06 PST    1.79   2.59   12  255   16  63.5  59.5 1005.9 -9.9 -9.999 -99.9 -99.99 -9.99
2019/11/19 13:12 PST    1.78   2.59   13  259   16  63.5  59.5 1005.8 -9.9 -9.999 -99.9 -99.99 -9.99
2019/11/19 13:18 PST    1.78   2.59   14  254   16  63.7  59.5 1005.7 -9.9 -9.999 -99.9 -99.99 -9.99
2019/11/19 13:24 PST    1.78   2.61   13  255   16  63.9  59.7 1005.6 -9.9 -9.999 -99.9 -99.99 -9.99
2019/11/19 13:30 PST    1.78   2.62   14  259   16  63.7  59.7 1005.6 -9.9 -9.999 -99.9 -99.99 -9.99
2019/11/19 13:36 PST    1.79   2.64   11  261   15  63.9  59.7 1005.5 -9.9 -9.999 -99.9 -99.99 -9.99
2019/11/19 13:42 PST    1.80   2.66   11  259   13  63.9  59.7 1005.4 -9.9 -9.999 -99.9 -99.99 -9.99
2019/11/19 13:48 PST    1.81   2.68   13  255   16  63.9  59.7 1005.3 -9.9 -9.999 -99.9 -99.99 -9.99
2019/11/19 13:54 PST    1.83   2.70   12  262   13  63.9  59.5 1005.2 -9.9 -9.999 -99.9 -99.99 -9.99
2019/11/19 14:00 PST    1.85   2.73   11  259   14  64.0  59.5 1005.1 -9.9 -9.999 -99.9 -99.99 -9.99
2019/11/19 14:06 PST    1.88   2.76   11  260   13  64.2  59.7 1005.0 -9.9 -9.999 -99.9 -99.99 -9.99
2019/11/19 14:12 PST    1.90   2.80   11  258   14  64.2  59.7 1004.8 -9.9 -9.999 -99.9 -99.99 -9.99
2019/11/19 14:18 PST    1.94   2.83    9  252   12  64.0  59.7 1004.7 -9.9 -9.999 -99.9 -99.99 -9.99
2019/11/19 14:24 PST    1.97   2.88   11  251   13  64.0  59.7 1004.8 -9.9 -9.999 -99.9 -99.99 -9.99
2019/11/19 14:30 PST    2.01   2.92   10  252   12  64.2  59.7 1004.8 -9.9 -9.999 -99.9 -99.99 -9.99
2019/11/19 14:36 PST    2.06   2.98   11  255   15  64.0  59.7 1004.7 -9.9 -9.999 -99.9 -99.99 -9.99
2019/11/19 14:42 PST    2.11   3.05   12  260   14  63.9  59.7 1004.6 -9.9 -9.999 -99.9 -99.99 -9.99
2019/11/19 14:48 PST    2.16   3.11   11  259   14  63.7  59.7 1004.6 -9.9 -9.999 -99.9 -99.99 -9.99
2019/11/19 14:54 PST    2.21   3.17   11  260   13  63.5  59.7 1004.6 -9.9 -9.999 -99.9 -99.99 -9.99
2019/11/19 15:00 PST    2.27   3.22   11  257   14  63.5  59.7 1004.6 -9.9 -9.999 -99.9 -99.99 -9.99
2019/11/19 15:06 PST    2.33   3.28   10  254   15  63.5  59.9 1004.5 -9.9 -9.999 -99.9 -99.99 -9.99
2019/11/19 15:12 PST    2.40   3.34   11  253   13  63.5  59.9 1004.5 -9.9 -9.999 -99.9 -99.99 -9.99
2019/11/19 15:18 PST    2.47   3.41   12  258   13  63.5  59.9 1004.5 -9.9 -9.999 -99.9 -99.99 -9.99
2019/11/19 15:24 PST    2.54   3.47   11  254   14  63.3  59.9 1004.4 -9.9 -9.999 -99.9 -99.99 -9.99
2019/11/19 15:30 PST    2.61   3.54   12  257   14  62.8  59.9 1004.3 -9.9 -9.999 -99.9 -99.99 -9.99
2019/11/19 15:36 PST    2.69   3.61   12  258   16  62.6  59.7 1004.2 -9.9 -9.999 -99.9 -99.99 -9.99
2019/11/19 15:42 PST    2.77   3.67   12  255   16  62.6  59.7 1004.2 -9.9 -9.999 -99.9 -99.99 -9.99
2019/11/19 15:48 PST    2.84   3.72   11  250   14  62.6  59.7 1004.1 -9.9 -9.999 -99.9 -99.99 -9.99
2019/11/19 15:54 PST    2.92   3.78   10  244   14  62.8  59.7 1003.9 -9.9 -9.999 -99.9 -99.99 -9.99
2019/11/19 16:00 PST    3.00   3.85   10  248   12  62.8  59.7 1003.8 -9.9 -9.999 -99.9 -99.99 -9.99
2019/11/19 16:06 PST    3.08   3.92   10  247   13  62.4  59.7 1003.8 -9.9 -9.999 -99.9 -99.99 -9.99
2019/11/19 16:12 PST    3.16   3.95    8  246   11  62.4  59.5 1003.7 -9.9 -9.999 -99.9 -99.99 -9.99
2019/11/19 16:18 PST    3.24   4.05   10  250   12  62.1  59.5 1003.7 -9.9 -9.999 -99.9 -99.99 -9.99
2019/11/19 16:24 PST    3.32   4.12   11  249   14  62.1  59.5 1003.6 -9.9 -9.999 -99.9 -99.99 -9.99
2019/11/19 16:30 PST    3.39   4.18   10  249   12  61.7  59.5 1003.6 -9.9 -9.999 -99.9 -99.99 -9.99
2019/11/19 16:36 PST    3.47   4.23   11  248   12  61.5  59.5 1003.5 -9.9 -9.999 -99.9 -99.99 -9.99
2019/11/19 16:42 PST    3.54   4.29    9  246   13  61.0  59.5 1003.4 -9.9 -9.999 -99.9 -99.99 -9.99
2019/11/19 16:48 PST    3.61   4.34    8  240   11  60.3  59.5 1003.3 -9.9 -9.999 -99.9 -99.99 -9.99
2019/11/19 16:54 PST    3.67   4.40    8  234   11  59.5  59.5 1003.3 -9.9 -9.999 -99.9 -99.99 -9.99
2019/11/19 17:00 PST    3.74   4.46    7  235   10  59.2  59.5 1003.2 -9.9 -9.999 -99.9 -99.99 -9.99
2019/11/19 17:06 PST    3.79   4.50    8  235   10  58.6  59.5 1003.1 -9.9 -9.999 -99.9 -99.99 -9.99
2019/11/19 17:12 PST    3.85   4.54    9  237   10  58.3  59.5 1003.1 -9.9 -9.999 -99.9 -99.99 -9.99
2019/11/19 17:18 PST    3.90   4.58   10  235   13  58.6  59.5 1003.1 -9.9 -9.999 -99.9 -99.99 -9.99
2019/11/19 17:24 PST    3.95   4.61   10  229   14  58.8  59.5 1002.9 -9.9 -9.999 -99.9 -99.99 -9.99
2019/11/19 17:30 PST    3.99   4.64    6  221   11  57.7  59.5 1002.8 -9.9 -9.999 -99.9 -99.99 -9.99
2019/11/19 17:36 PST    4.03   4.67    6  222    7  57.4  59.5 1002.7 -9.9 -9.999 -99.9 -99.99 -9.99
2019/11/19 17:42 PST    4.07   4.71    6  222    9  57.6  59.5 1002.7 -9.9 -9.999 -99.9 -99.99 -9.99
2019/11/19 17:48 PST    4.10   4.74    6  223    8  57.4  59.5 1002.7 -9.9 -9.999 -99.9 -99.99 -9.99
2019/11/19 17:54 PST    4.12   4.77    6  226    8  57.4  59.5 1002.7 -9.9 -9.999 -99.9 -99.99 -9.99
2019/11/19 18:00 PST    4.15   4.78    6  220    8  57.6  59.5 1002.7 -9.9 -9.999 -99.9 -99.99 -9.99
2019/11/19 18:06 PST    4.16   4.79    5  219    8  57.0  59.5 1002.6 -9.9 -9.999 -99.9 -99.99 -9.99
2019/11/19 18:12 PST    4.18   4.80    6  222    9  57.4  59.5 1002.5 -9.9 -9.999 -99.9 -99.99 -9.99
2019/11/19 18:18 PST    4.19   4.81    5  224    9  57.4  59.5 1002.5 -9.9 -9.999 -99.9 -99.99 -9.99
2019/11/19 18:24 PST    4.19   4.81    8  224    9  57.4  59.5 1002.5 -9.9 -9.999 -99.9 -99.99 -9.99
2019/11/19 18:30 PST    4.20   4.81    7  234   11  56.7  59.5 1002.3 -9.9 -9.999 -99.9 -99.99 -9.99
2019/11/19 18:36 PST    4.19   4.82    8  230   10  56.7  59.5 1002.2 -9.9 -9.999 -99.9 -99.99 -9.99
2019/11/19 18:42 PST    4.19   4.81    7  226   11  56.8  59.5 1002.1 -9.9 -9.999 -99.9 -99.99 -9.99
2019/11/19 18:48 PST    4.18   4.79    8  222   10  57.0  59.4 1002.0 -9.9 -9.999 -99.9 -99.99 -9.99
2019/11/19 18:54 PST    4.17   4.76    5  212    8  57.0  59.4 1001.8 -9.9 -9.999 -99.9 -99.99 -9.99
2019/11/19 19:00 PST    4.15   4.75    4  204    7  56.5  59.4 1001.9 -9.9 -9.999 -99.9 -99.99 -9.99
2019/11/19 19:06 PST    4.13   4.73    4  214    5  56.5  59.4 1001.9 -9.9 -9.999 -99.9 -99.99 -9.99
2019/11/19 19:12 PST    4.11   4.71    4  210    8  56.7  59.4 1001.9 -9.9 -9.999 -99.9 -99.99 -9.99
2019/11/19 19:18 PST    4.09   4.68    4  216    8  56.1  59.4 1002.0 -9.9 -9.999 -99.9 -99.99 -9.99
2019/11/19 19:24 PST    4.06   4.65    4  214    8  56.3  59.4 1002.0 -9.9 -9.999 -99.9 -99.99 -9.99
2019/11/19 19:30 PST    4.03   4.62    6  218    8  56.1  59.4 1002.0 -9.9 -9.999 -99.9 -99.99 -9.99
2019/11/19 19:36 PST    3.99   4.57    7  213   11  56.8  59.4 1001.9 -9.9 -9.999 -99.9 -99.99 -9.99
2019/11/19 19:42 PST    3.95   4.53    7  221   10  56.1  59.4 1001.9 -9.9 -9.999 -99.9 -99.99 -9.99
2019/11/19 19:48 PST    3.91   4.49    8  220   10  56.3  59.4 1001.8 -9.9 -9.999 -99.9 -99.99 -9.99
2019/11/19 19:54 PST    3.87   4.43    7  226   12  56.1  59.4 1001.7 -9.9 -9.999 -99.9 -99.99 -9.99
2019/11/19 20:00 PST    3.82   4.38    9  222   11  55.9  59.4 1001.6 -9.9 -9.999 -99.9 -99.99 -9.99
2019/11/19 20:06 PST    3.77   4.33    8  220   12  55.9  59.4 1001.6 -9.9 -9.999 -99.9 -99.99 -9.99
2019/11/19 20:12 PST    3.71   4.27    7  221   11  55.6  59.4 1001.6 -9.9 -9.999 -99.9 -99.99 -9.99
2019/11/19 20:18 PST    3.66   4.21    5  218    9  55.6  59.4 1001.6 -9.9 -9.999 -99.9 -99.99 -9.99
2019/11/19 20:24 PST    3.59   4.14    6  216    8  55.8  59.4 1001.5 -9.9 -9.999 -99.9 -99.99 -9.99
2019/11/19 20:30 PST    3.53   4.08    4  204    6  55.2  59.4 1001.5 -9.9 -9.999 -99.9 -99.99 -9.99
2019/11/19 20:36 PST    3.47   4.00    6  216    9  54.7  59.4 1001.5 -9.9 -9.999 -99.9 -99.99 -9.99
2019/11/19 20:42 PST    3.40   3.92    6  214    8  55.0  59.4 1001.5 -9.9 -9.999 -99.9 -99.99 -9.99
2019/11/19 20:48 PST    3.32   3.84    9  194   11  54.7  59.4 1001.5 -9.9 -9.999 -99.9 -99.99 -9.99
2019/11/19 20:54 PST    3.25   3.75    6  200   10  54.7  59.4 1001.4 -9.9 -9.999 -99.9 -99.99 -9.99
2019/11/19 21:00 PST    3.17   3.67    8  220   11  54.7  59.4 1001.4 -9.9 -9.999 -99.9 -99.99 -9.99
2019/11/19 21:06 PST    3.09   3.58    8  220   12  54.7  59.4 1001.4 -9.9 -9.999 -99.9 -99.99 -9.99
2019/11/19 21:12 PST    3.01   3.49    7  218   10  54.7  59.4 1001.3 -9.9 -9.999 -99.9 -99.99 -9.99
2019/11/19 21:18 PST    2.93   3.42    8  226   11  54.9  59.4 1001.4 -9.9 -9.999 -99.9 -99.99 -9.99
2019/11/19 21:24 PST    2.84   3.34    7  227   11  54.9  59.4 1001.4 -9.9 -9.999 -99.9 -99.99 -9.99
2019/11/19 21:30 PST    2.76   3.25    7  234   11  55.6  59.4 1001.4 -9.9 -9.999 -99.9 -99.99 -9.99
2019/11/19 21:36 PST    2.67   3.15   10  238   13  55.8  59.4 1001.4 -9.9 -9.999 -99.9 -99.99 -9.99
2019/11/19 21:42 PST    2.58   3.06    9  236   11  55.6  59.4 1001.4 -9.9 -9.999 -99.9 -99.99 -9.99
2019/11/19 21:48 PST    2.49   2.97    8  230   10  55.2  59.4 1001.4 -9.9 -9.999 -99.9 -99.99 -9.99
2019/11/19 21:54 PST    2.39   2.89    8  229   11  55.0  59.4 1001.5 -9.9 -9.999 -99.9 -99.99 -9.99
2019/11/19 22:00 PST    2.30   2.80    8  236   11  55.4  59.4 1001.5 -9.9 -9.999 -99.9 -99.99 -9.99
2019/11/19 22:06 PST    2.21   2.71    8  225   10  55.2  59.2 1001.4 -9.9 -9.999 -99.9 -99.99 -9.99
2019/11/19 22:12 PST    2.11   2.62    6  222    9  55.2  59.2 1001.4 -9.9 -9.999 -99.9 -99.99 -9.99
2019/11/19 22:18 PST    2.02   2.53    5  220    8  55.0  59.2 1001.3 -9.9 -9.999 -99.9 -99.99 -9.99
2019/11/19 22:24 PST    1.93   2.44    4  215    9  55.2  59.2 1001.2 -9.9 -9.999 -99.9 -99.99 -9.99
2019/11/19 22:30 PST    1.84   2.34    4  210    7  55.0  59.2 1001.1 -9.9 -9.999 -99.9 -99.99 -9.99
2019/11/19 22:36 PST    1.75   2.26    3  210    5  54.9  59.2 1001.1 -9.9 -9.999 -99.9 -99.99 -9.99
2019/11/19 22:42 PST    1.66   2.18    3  209    6  54.7  59.2 1001.0 -9.9 -9.999 -99.9 -99.99 -9.99
2019/11/19 22:48 PST    1.57   2.10    3  208    7  54.5  59.2 1000.9 -9.9 -9.999 -99.9 -99.99 -9.99
2019/11/19 22:54 PST    1.48   2.02    4  204    6  54.5  59.2 1000.9 -9.9 -9.999 -99.9 -99.99 -9.99
2019/11/19 23:00 PST    1.40   1.94    4  200    7  54.1  59.2 1001.0 -9.9 -9.999 -99.9 -99.99 -9.99
2019/11/19 23:06 PST    1.31   1.87    4  204    8  54.1  59.0 1000.8 -9.9 -9.999 -99.9 -99.99 -9.99
2019/11/19 23:12 PST    1.23   1.80    6  197    9  53.8  59.0 1000.7 -9.9 -9.999 -99.9 -99.99 -9.99
2019/11/19 23:18 PST    1.15   1.74    5  201    8  54.0  59.0 1000.7 -9.9 -9.999 -99.9 -99.99 -9.99
2019/11/19 23:24 PST    1.07   1.67    6  198    9  53.8  59.0 1000.7 -9.9 -9.999 -99.9 -99.99 -9.99
2019/11/19 23:30 PST    1.00   1.61    6  198    9  53.4  59.0 1000.6 -9.9 -9.999 -99.9 -99.99 -9.99
2019/11/19 23:36 PST    0.93   1.56    4  209    9  53.2  59.0 1000.6 -9.9 -9.999 -99.9 -99.99 -9.99
2019/11/19 23:42 PST    0.86   1.50    7  193    9  52.9  59.0 1000.6 -9.9 -9.999 -99.9 -99.99 -9.99
2019/11/19 23:48 PST    0.79   1.45    6  193    9  53.2  59.0 1000.7 -9.9 -9.999 -99.9 -99.99 -9.99
2019/11/19 23:54 PST    0.73   1.40    6  193    8  53.1  59.0 1000.8 -9.9 -9.999 -99.9 -99.99 -9.99
2019/11/20 00:00 PST    0.67   1.34    3  207    6  52.7  58.8 1000.8 -9.9 -9.999 -99.9 -99.99 -9.99
2019/11/20 00:06 PST    0.61   1.30    4  207    6  53.1  58.8 1000.7 -9.9 -9.999 -99.9 -99.99 -9.99
2019/11/20 00:12 PST    0.55   1.25    4  211    6  53.1  58.8 1000.7 -9.9 -9.999 -99.9 -99.99 -9.99
2019/11/20 00:18 PST    0.50   1.20    4  214    6  53.4  58.8 1000.7 -9.9 -9.999 -99.9 -99.99 -9.99
2019/11/20 00:24 PST    0.45   1.16    4  203    7  53.2  58.8 1000.7 -9.9 -9.999 -99.9 -99.99 -9.99
2019/11/20 00:30 PST    0.41   1.11    4  205    7  53.2  58.8 1000.6 -9.9 -9.999 -99.9 -99.99 -9.99
2019/11/20 00:36 PST    0.36   1.07    4  200    6  52.9  58.8 1000.5 -9.9 -9.999 -99.9 -99.99 -9.99
2019/11/20 00:42 PST    0.32   1.02    4  207    8  53.4  58.6 1000.4 -9.9 -9.999 -99.9 -99.99 -9.99
2019/11/20 00:48 PST    0.28   0.98    7  192    8  53.2  58.6 1000.5 -9.9 -9.999 -99.9 -99.99 -9.99
2019/11/20 00:54 PST    0.25   0.94    4  202    7  53.1  58.6 1000.5 -9.9 -9.999 -99.9 -99.99 -9.99
2019/11/20 01:00 PST    0.21   0.90    4  199    8  53.2  58.6 1000.6 -9.9 -9.999 -99.9 -99.99 -9.99
2019/11/20 01:06 PST    0.18   0.87    4  216    6  53.8  58.6 1000.5 -9.9 -9.999 -99.9 -99.99 -9.99
2019/11/20 01:12 PST    0.15   0.83    3  216    6  53.8  58.6 1000.6 -9.9 -9.999 -99.9 -99.99 -9.99
2019/11/20 01:18 PST    0.13   0.78    7  219    9  54.5  58.6 1000.5 -9.9 -9.999 -99.9 -99.99 -9.99
2019/11/20 01:24 PST    0.10   0.73    3  204    6  53.6  58.5 1000.5 -9.9 -9.999 -99.9 -99.99 -9.99
2019/11/20 01:30 PST    0.08   0.68    6  190    8  52.0  58.5 1000.4 -9.9 -9.999 -99.9 -99.99 -9.99
2019/11/20 01:36 PST    0.06   0.65    6  191    7  50.5  58.5 1000.4 -9.9 -9.999 -99.9 -99.99 -9.99
2019/11/20 01:42 PST    0.05   0.60    8  190    8  51.4  58.5 1000.3 -9.9 -9.999 -99.9 -99.99 -9.99
2019/11/20 01:48 PST    0.03   0.57    7  187    9  51.3  58.5 1000.3 -9.9 -9.999 -99.9 -99.99 -9.99
2019/11/20 01:54 PST    0.02   0.54    7  186    9  51.3  58.5 1000.3 -9.9 -9.999 -99.9 -99.99 -9.99
2019/11/20 02:00 PST    0.02   0.51    8  189    9  51.6  58.5 1000.3 -9.9 -9.999 -99.9 -99.99 -9.99
2019/11/20 02:06 PST    0.01   0.48    6  201   11  52.0  58.5 1000.3 -9.9 -9.999 -99.9 -99.99 -9.99
2019/11/20 02:12 PST    0.01   0.46    9  193   11  51.6  58.5 1000.3 -9.9 -9.999 -99.9 -99.99 -9.99
2019/11/20 02:18 PST    0.01   0.44    8  192   11  50.7  58.3 1000.3 -9.9 -9.999 -99.9 -99.99 -9.99
2019/11/20 02:24 PST    0.02   0.43    7  196   11  50.7  58.3 1000.4 -9.9 -9.999 -99.9 -99.99 -9.99
2019/11/20 02:30 PST    0.03   0.42    8  190    9  50.7  58.3 1000.4 -9.9 -9.999 -99.9 -99.99 -9.99
2019/11/20 02:36 PST    0.04   0.41    7  189    9  50.7  58.3 1000.4 -9.9 -9.999 -99.9 -99.99 -9.99
2019/11/20 02:42 PST    0.06   0.41    7  192    9  50.7  58.3 1000.5 -9.9 -9.999 -99.9 -99.99 -9.99
2019/11/20 02:48 PST    0.08   0.43    6  199    9  50.5  58.3 1000.4 -9.9 -9.999 -99.9 -99.99 -9.99
2019/11/20 02:54 PST    0.11   0.43    3  207    9  50.4  58.3 1000.5 -9.9 -9.999 -99.9 -99.99 -9.99
2019/11/20 03:00 PST    0.14   0.46    5  202    8  50.5  58.3 1000.5 -9.9 -9.999 -99.9 -99.99 -9.99
2019/11/20 03:06 PST    0.17   0.51    4  204    8  50.9  58.3 1000.4 -9.9 -9.999 -99.9 -99.99 -9.99
2019/11/20 03:12 PST    0.21   0.55    4  206    8  50.5  58.3 1000.4 -9.9 -9.999 -99.9 -99.99 -9.99
2019/11/20 03:18 PST    0.25   0.60    5  214    7  50.9  58.3 1000.4 -9.9 -9.999 -99.9 -99.99 -9.99
2019/11/20 03:24 PST    0.30   0.67    8  226   10  50.7  58.3 1000.4 -9.9 -9.999 -99.9 -99.99 -9.99
2019/11/20 03:30 PST    0.35   0.74    7  218   10  51.8  58.3 1000.4 -9.9 -9.999 -99.9 -99.99 -9.99
2019/11/20 03:36 PST    0.41   0.81    4  208    7  51.1  58.3 1000.4 -9.9 -9.999 -99.9 -99.99 -9.99
2019/11/20 03:42 PST    0.47   0.89    4  204    7  51.4  58.3 1000.5 -9.9 -9.999 -99.9 -99.99 -9.99
2019/11/20 03:48 PST    0.53   0.97    4  207    8  51.1  58.3 1000.5 -9.9 -9.999 -99.9 -99.99 -9.99
2019/11/20 03:54 PST    0.60   1.04    6  215    9  51.4  58.5 1000.3 -9.9 -9.999 -99.9 -99.99 -9.99
2019/11/20 04:00 PST    0.67   1.12    4  203    7  50.5  58.3 1000.2 -9.9 -9.999 -99.9 -99.99 -9.99
2019/11/20 04:06 PST    0.75   1.21    4  202    8  50.5  58.3 1000.2 -9.9 -9.999 -99.9 -99.99 -9.99
2019/11/20 04:12 PST    0.83   1.31    4  210    9  51.3  58.3 1000.2 -9.9 -9.999 -99.9 -99.99 -9.99
2019/11/20 04:18 PST    0.91   1.41    4  211    9  50.9  58.3 1000.2 -9.9 -9.999 -99.9 -99.99 -9.99
2019/11/20 04:24 PST    0.99   1.50    5  209    7  50.7  58.3 1000.2 -9.9 -9.999 -99.9 -99.99 -9.99
2019/11/20 04:30 PST    1.08   1.60    7  201    9  52.5  58.3 1000.1 -9.9 -9.999 -99.9 -99.99 -9.99
2019/11/20 04:36 PST    1.17   1.71    5  204    7  51.8  58.3 1000.1 -9.9 -9.999 -99.9 -99.99 -9.99
2019/11/20 04:42 PST    1.26   1.83    4  213    9  52.5  58.1 1000.1 -9.9 -9.999 -99.9 -99.99 -9.99
2019/11/20 04:48 PST    1.35   1.94    3  216    6  51.1  58.3 1000.1 -9.9 -9.999 -99.9 -99.99 -9.99
2019/11/20 04:54 PST    1.45   2.04    6  213    9  51.4  58.3 1000.1 -9.9 -9.999 -99.9 -99.99 -9.99
2019/11/20 05:00 PST    1.54   2.15    8  191   10  52.0  58.3 1000.2 -9.9 -9.999 -99.9 -99.99 -9.99
2019/11/20 05:06 PST    1.63   2.26    8  193   10  52.5  58.3 1000.2 -9.9 -9.999 -99.9 -99.99 -9.99
2019/11/20 05:12 PST    1.73   2.36    6  206    9  52.5  58.3 1000.2 -9.9 -9.999 -99.9 -99.99 -9.99
2019/11/20 05:18 PST    1.82   2.47    4  208    9  52.0  58.3 1000.2 -9.9 -9.999 -99.9 -99.99 -9.99
2019/11/20 05:24 PST    1.92   2.57    7  189   11  51.8  58.3 1000.3 -9.9 -9.999 -99.9 -99.99 -9.99
2019/11/20 05:30 PST    2.01   2.67    3  219    8  53.1  58.3 1000.3 -9.9 -9.999 -99.9 -99.99 -9.99
2019/11/20 05:36 PST    2.10   2.77    7  192    9  52.0  58.3 1000.3 -9.9 -9.999 -99.9 -99.99 -9.99
2019/11/20 05:42 PST    2.19   2.87    5  199    8  51.6  58.3 1000.3 -9.9 -9.999 -99.9 -99.99 -9.99
2019/11/20 05:48 PST    2.28   2.97    4  202    9  52.5  58.3 1000.3 -9.9 -9.999 -99.9 -99.99 -9.99
2019/11/20 05:54 PST    2.37   3.07    6  198    9  52.3  58.3 1000.2 -9.9 -9.999 -99.9 -99.99 -9.99
2019/11/20 06:00 PST    2.46   3.15    5  202    9  51.4  58.3 1000.3 -9.9 -9.999 -99.9 -99.99 -9.99
2019/11/20 06:06 PST    2.54   3.25    4  205    6  52.7  58.3 1000.3 -9.9 -9.999 -99.9 -99.99 -9.99
2019/11/20 06:12 PST    2.63   3.33    4  218    8  53.2  58.3 1000.4 -9.9 -9.999 -99.9 -99.99 -9.99
2019/11/20 06:18 PST    2.71   3.41    5  210    8  53.1  58.3 1000.4 -9.9 -9.999 -99.9 -99.99 -9.99
2019/11/20 06:24 PST    2.79   3.50    4  224    7  54.5  58.3 1000.4 -9.9 -9.999 -99.9 -99.99 -9.99
2019/11/20 06:30 PST    2.87   3.58    4  204    6  53.4  58.3 1000.4 -9.9 -9.999 -99.9 -99.99 -9.99
2019/11/20 06:36 PST    2.95   3.65    4  196    6  53.4  58.3 1000.4 -9.9 -9.999 -99.9 -99.99 -9.99
2019/11/20 06:42 PST    3.02   3.72    3  233    6  55.4  58.3 1000.4 -9.9 -9.999 -99.9 -99.99 -9.99
2019/11/20 06:48 PST    3.10   3.79    2  302    4  56.1  58.3 1000.4 -9.9 -9.999 -99.9 -99.99 -9.99
2019/11/20 06:54 PST    3.17   3.86    7  341   11  60.8  58.3 1000.5 -9.9 -9.999 -99.9 -99.99 -9.99
2019/11/20 07:00 PST    3.24   3.91   10  334   13  61.2  58.3 1000.5 -9.9 -9.999 -99.9 -99.99 -9.99
2019/11/20 07:06 PST    3.31   3.95   10  330   13  61.2  58.3 1000.7 -9.9 -9.999 -99.9 -99.99 -9.99
2019/11/20 07:12 PST    3.37   4.00    8  335   12  61.0  58.3 1000.6 -9.9 -9.999 -99.9 -99.99 -9.99
2019/11/20 07:18 PST    3.43   4.06    9  341   14  61.0  58.3 1000.4 -9.9 -9.999 -99.9 -99.99 -9.99
2019/11/20 07:24 PST    3.49   4.12   10  356   13  60.8  58.3 1000.3 -9.9 -9.999 -99.9 -99.99 -9.99
2019/11/20 07:30 PST    3.55   4.19   12  357   15  60.8  58.3 1000.2 -9.9 -9.999 -99.9 -99.99 -9.99
2019/11/20 07:36 PST    3.61   4.24   12  354   16  60.8  58.3 1000.2 -9.9 -9.999 -99.9 -99.99 -9.99
2019/11/20 07:42 PST    3.66   4.28    9  355   14  60.8  58.3 1000.4 -9.9 -9.999 -99.9 -99.99 -9.99
2019/11/20 07:48 PST    3.71   4.32    9  359   14  61.0  58.3 1000.6 -9.9 -9.999 -99.9 -99.99 -9.99
2019/11/20 07:54 PST    3.76   4.37    4  355    9  60.8  58.5 1000.8 -9.9 -9.999 -99.9 -99.99 -9.99
2019/11/20 08:00 PST    3.80   4.40    6  344    8  60.6  58.5 1000.8 -9.9 -9.999 -99.9 -99.99 -9.99
2019/11/20 08:06 PST    3.84   4.41   10  330   11  60.8  58.5 1000.8 -9.9 -9.999 -99.9 -99.99 -9.99
2019/11/20 08:12 PST    3.88   4.45    9  325   12  60.8  58.5 1000.8 -9.9 -9.999 -99.9 -99.99 -9.99
2019/11/20 08:18 PST    3.91   4.49   10  334   14  61.0  58.5 1000.7 -9.9 -9.999 -99.9 -99.99 -9.99
2019/11/20 08:24 PST    3.94   4.52    8  328   13  61.0  58.5 1000.8 -9.9 -9.999 -99.9 -99.99 -9.99
2019/11/20 08:30 PST    3.96   4.52    9  316   13  61.2  58.5 1000.9 -9.9 -9.999 -99.9 -99.99 -9.99
2019/11/20 08:36 PST    3.98   4.53    8  323   12  61.3  58.6 1000.9 -9.9 -9.999 -99.9 -99.99 -9.99
2019/11/20 08:42 PST    4.00   4.57   10  323   14  61.5  58.5 1000.8 -9.9 -9.999 -99.9 -99.99 -9.99
2019/11/20 08:48 PST    4.01   4.61    6  303   13  61.9  58.5 1000.9 -9.9 -9.999 -99.9 -99.99 -9.99
2019/11/20 08:54 PST    4.02   4.62   11  324   14  61.9  58.5 1000.9 -9.9 -9.999 -99.9 -99.99 -9.99
2019/11/20 09:00 PST    4.02   4.62   10  324   14  62.1  58.6 1000.8 -9.9 -9.999 -99.9 -99.99 -9.99
2019/11/20 09:06 PST    4.02   4.64   14  335   18  62.2  58.6 1000.6 -9.9 -9.999 -99.9 -99.99 -9.99
2019/11/20 09:12 PST    4.01   4.66   12  346   15  62.2  58.6 1000.5 -9.9 -9.999 -99.9 -99.99 -9.99
2019/11/20 09:18 PST    4.00   4.66   10  350   15  62.4  58.5 1000.5 -9.9 -9.999 -99.9 -99.99 -9.99
2019/11/20 09:24 PST    3.99   4.65    9  356   12  62.6  58.6 1000.5 -9.9 -9.999 -99.9 -99.99 -9.99
2019/11/20 09:30 PST    3.97   4.65   11  344   13  62.6  58.6 1000.5 -9.9 -9.999 -99.9 -99.99 -9.99
2019/11/20 09:36 PST    3.94   4.65   11  349   15  63.1  58.6 1000.4 -9.9 -9.999 -99.9 -99.99 -9.99
2019/11/20 09:42 PST    3.91   4.65   10  340   17  63.1  58.6 1000.4 -9.9 -9.999 -99.9 -99.99 -9.99
2019/11/20 09:48 PST    3.88   4.62   15  357   17  63.3  58.6 1000.2 -9.9 -9.999 -99.9 -99.99 -9.99
2019/11/20 09:54 PST    3.84   4.59   12  345   18  63.0  58.6 1000.1 -9.9 -9.999 -99.9 -99.99 -9.99
2019/11/20 10:00 PST    3.80   4.59   14    2   19  63.7  58.6 1000.0 -9.9 -9.999 -99.9 -99.99 -9.99
2019/11/20 10:06 PST    3.75   4.55   13  355   21  63.5  58.6 1000.0 -9.9 -9.999 -99.9 -99.99 -9.99
2019/11/20 10:12 PST    3.70   4.50   15  357   18  63.9  58.6  999.9 -9.9 -9.999 -99.9 -99.99 -9.99
2019/11/20 10:18 PST    3.65   4.46   21  357   26  64.0  58.6  999.8 -9.9 -9.999 -99.9 -99.99 -9.99
2019/11/20 10:24 PST    3.60   4.42   22    3   28  64.0  58.6  999.6 -9.9 -9.999 -99.9 -99.99 -9.99
2019/11/20 10:30 PST    3.54   4.39   25    1   30  64.0  58.6  999.5 -9.9 -9.999 -99.9 -99.99 -9.99
2019/11/20 10:36 PST    3.47   4.34   23    6   31  64.0  58.6  999.5 -9.9 -9.999 -99.9 -99.99 -9.99
2019/11/20 10:42 PST    3.41   4.29   23    3   31  64.0  58.6  999.4 -9.9 -9.999 -99.9 -99.99 -9.99
2019/11/20 10:48 PST    3.34   4.23   24    1   33  64.2  58.6  999.4 -9.9 -9.999 -99.9 -99.99 -9.99
2019/11/20 10:54 PST    3.27   4.16   25    2   29  64.4  58.6  999.2 -9.9 -9.999 -99.9 -99.99 -9.99
2019/11/20 11:00 PST    3.20   4.11   23    0   28  64.2  58.6  999.3 -9.9 -9.999 -99.9 -99.99 -9.99
2019/11/20 11:06 PST    3.13   4.02   22    1   29  64.0  58.6  999.3 -9.9 -9.999 -99.9 -99.99 -9.99
2019/11/20 11:12 PST    3.06   3.93   24  357   28  64.4  58.6  999.2 -9.9 -9.999 -99.9 -99.99 -9.99
2019/11/20 11:18 PST    2.99   3.86   24  355   28  64.8  58.6  999.2 -9.9 -9.999 -99.9 -99.99 -9.99
2019/11/20 11:24 PST    2.91   3.77   18    1   26  64.4  58.6  999.2 -9.9 -9.999 -99.9 -99.99 -9.99
2019/11/20 11:30 PST    2.84   3.71   21  357   27  64.6  58.6  999.1 -9.9 -9.999 -99.9 -99.99 -9.99
2019/11/20 11:36 PST    2.77   3.64   21  355   26  64.6  58.6  999.0 -9.9 -9.999 -99.9 -99.99 -9.99
2019/11/20 11:42 PST    2.69   3.55   19    5   26  64.8  58.6  999.0 -9.9 -9.999 -99.9 -99.99 -9.99
2019/11/20 11:48 PST    2.62   3.47   17    1   22  64.6  58.8  998.9 -9.9 -9.999 -99.9 -99.99 -9.99
2019/11/20 11:54 PST    2.55   3.37   22    2   27  64.8  58.8  998.8 -9.9 -9.999 -99.9 -99.99 -9.99
2019/11/20 12:00 PST    2.48   3.30   20    5   27  64.6  58.8  998.8 -9.9 -9.999 -99.9 -99.99 -9.99
2019/11/20 12:06 PST    2.41   3.21   20    3   27  64.9  58.8  998.7 -9.9 -9.999 -99.9 -99.99 -9.99
2019/11/20 12:12 PST    2.34   3.13   20  350   25  64.8  58.8  998.7 -9.9 -9.999 -99.9 -99.99 -9.99
2019/11/20 12:18 PST    2.28   3.07   17    0   23  64.8  58.8  998.7 -9.9 -9.999 -99.9 -99.99 -9.99
2019/11/20 12:24 PST    2.21   2.96   23    4   29  65.3  58.8  998.7 -9.9 -9.999 -99.9 -99.99 -9.99
2019/11/20 12:30 PST    2.15   2.87   21  359   25  65.1  58.8  998.7 -9.9 -9.999 -99.9 -99.99 -9.99
2019/11/20 12:36 PST    2.09   2.80   18  356   22  65.1  58.8  998.6 -9.9 -9.999 -99.9 -99.99 -9.99
2019/11/20 12:42 PST    2.03   2.73   17  357   23  64.9  58.8  998.6 -9.9 -9.999 -99.9 -99.99 -9.99
2019/11/20 12:48 PST    1.97   2.65   21    2   25  65.7  58.8  998.6 -9.9 -9.999 -99.9 -99.99 -9.99
2019/11/20 12:54 PST    1.92   2.59   21    1   26  65.7  58.8  998.5 -9.9 -9.999 -99.9 -99.99 -9.99
2019/11/20 13:00 PST    1.87   2.53   18  358   24  65.3  58.8  998.6 -9.9 -9.999 -99.9 -99.99 -9.99
2019/11/20 13:06 PST    1.82   2.53   19  356   23  65.5  58.8  998.5 -9.9 -9.999 -99.9 -99.99 -9.99
2019/11/20 13:12 PST    1.77   2.49   19  360   25  65.8  58.8  998.5 -9.9 -9.999 -99.9 -99.99 -9.99
2019/11/20 13:18 PST    1.73   2.44   22  352   27  65.7  59.0  998.5 -9.9 -9.999 -99.9 -99.99 -9.99
2019/11/20 13:24 PST    1.69   2.40   19  359   24  65.7  59.0  998.5 -9.9 -9.999 -99.9 -99.99 -9.99
2019/11/20 13:30 PST    1.65   2.35   19    3   22  66.0  59.0  998.5 -9.9 -9.999 -99.9 -99.99 -9.99
2019/11/20 13:36 PST    1.61   2.31   20    6   26  66.2  59.0  998.5 -9.9 -9.999 -99.9 -99.99 -9.99
2019/11/20 13:42 PST    1.58   2.28   18   10   21  65.8  59.0  998.5 -9.9 -9.999 -99.9 -99.99 -9.99
2019/11/20 13:48 PST    1.55   2.24   19   10   23  65.8  59.0  998.5 -9.9 -9.999 -99.9 -99.99 -9.99
2019/11/20 13:54 PST    1.52   2.20   18    3   22  65.8  59.0  998.6 -9.9 -9.999 -99.9 -99.99 -9.99
2019/11/20 14:00 PST    1.50   2.17   18    2   20  65.7  59.0  998.6 -9.9 -9.999 -99.9 -99.99 -9.99
2019/11/20 14:06 PST    1.48   2.16   19  360   21  65.8  59.0  998.5 -9.9 -9.999 -99.9 -99.99 -9.99
2019/11/20 14:12 PST    1.46   2.15   17  355   21  65.3  59.0  998.5 -9.9 -9.999 -99.9 -99.99 -9.99
2019/11/20 14:18 PST    1.44   2.10   19    2   24  66.2  59.0  998.4 -9.9 -9.999 -99.9 -99.99 -9.99
2019/11/20 14:24 PST    1.43   2.08   18    1   23  65.8  59.0  998.5 -9.9 -9.999 -99.9 -99.99 -9.99
2019/11/20 14:30 PST    1.42   2.09   16    2   23  65.5  59.0  998.5 -9.9 -9.999 -99.9 -99.99 -9.99
2019/11/20 14:36 PST    1.42   2.07   15  359   19  65.7  59.0  998.6 -9.9 -9.999 -99.9 -99.99 -9.99
2019/11/20 14:42 PST    1.42   2.09   16  356   19  65.7  59.0  998.6 -9.9 -9.999 -99.9 -99.99 -9.99
2019/11/20 14:48 PST    1.42   2.08   20    0   24  66.2  59.0  998.4 -9.9 -9.999 -99.9 -99.99 -9.99
2019/11/20 14:54 PST    1.43   2.10   17    1   23  66.0  58.8  998.5 -9.9 -9.999 -99.9 -99.99 -9.99
2019/11/20 15:00 PST    1.44   2.08   17  359   21  66.2  59.0  998.5 -9.9 -9.999 -99.9 -99.99 -9.99
2019/11/20 15:06 PST    1.45   2.10   15    2   17  65.7  59.0  998.4 -9.9 -9.999 -99.9 -99.99 -9.99
2019/11/20 15:12 PST    1.47   2.13   14  349   17  65.5  59.0  998.4 -9.9 -9.999 -99.9 -99.99 -9.99
2019/11/20 15:18 PST    1.50   2.15   19  357   24  66.6  59.0  998.4 -9.9 -9.999 -99.9 -99.99 -9.99
2019/11/20 15:24 PST    1.53   2.18   15    3   20  66.0  58.8  998.5 -9.9 -9.999 -99.9 -99.99 -9.99
2019/11/20 15:30 PST    1.56   2.21   18    1   21  66.4  58.8  998.5 -9.9 -9.999 -99.9 -99.99 -9.99
2019/11/20 15:36 PST    1.60   2.25   15    5   19  65.8  58.8  998.6 -9.9 -9.999 -99.9 -99.99 -9.99
2019/11/20 15:42 PST    1.64   2.30   14    0   19  66.0  58.8  998.6 -9.9 -9.999 -99.9 -99.99 -9.99
2019/11/20 15:48 PST    1.69   2.34   15  359   18  66.2  58.8  998.7 -9.9 -9.999 -99.9 -99.99 -9.99
2019/11/20 15:54 PST    1.74   2.40   15  360   19  66.2  58.6  998.7 -9.9 -9.999 -99.9 -99.99 -9.99
2019/11/20 16:00 PST    1.79   2.43   14  360   19  66.0  58.6  998.7 -9.9 -9.999 -99.9 -99.99 -9.99
2019/11/20 16:06 PST    1.85   2.48   16    3   20  65.7  58.6  998.7 -9.9 -9.999 -99.9 -99.99 -9.99
2019/11/20 16:12 PST    1.91   2.55   15    4   18  65.5  58.6  998.7 -9.9 -9.999 -99.9 -99.99 -9.99
2019/11/20 16:18 PST    1.98   2.62   16    2   19  66.4  58.6  998.7 -9.9 -9.999 -99.9 -99.99 -9.99
2019/11/20 16:24 PST    2.05   2.67   14    2   16  65.7  58.6  998.8 -9.9 -9.999 -99.9 -99.99 -9.99
2019/11/20 16:30 PST    2.12   2.74   13  358   16  65.8  58.8  998.9 -9.9 -9.999 -99.9 -99.99 -9.99
2019/11/20 16:36 PST    2.19   2.82   14  360   17  65.7  58.8  999.0 -9.9 -9.999 -99.9 -99.99 -9.99
2019/11/20 16:42 PST    2.27   2.90   13  355   16  65.8  58.8  999.1 -9.9 -9.999 -99.9 -99.99 -9.99
2019/11/20 16:48 PST    2.35   2.98   11  356   14  65.3  58.8  999.2 -9.9 -9.999 -99.9 -99.99 -9.99
2019/11/20 16:54 PST    2.43   3.05   11  358   13  65.7  58.6  999.3 -9.9 -9.999 -99.9 -99.99 -9.99
2019/11/20 17:00 PST    2.51   3.13   15  348   18  66.0  58.6  999.2 -9.9 -9.999 -99.9 -99.99 -9.99
2019/11/20 17:06 PST    2.59   3.21   12  347   18  65.5  58.6  999.4 -9.9 -9.999 -99.9 -99.99 -9.99
2019/11/20 17:12 PST    2.67   3.29   14  354   17  65.7  58.6  999.5 -9.9 -9.999 -99.9 -99.99 -9.99
2019/11/20 17:18 PST    2.75   3.36   13    4   18  65.5  58.6  999.6 -9.9 -9.999 -99.9 -99.99 -9.99
2019/11/20 17:24 PST    2.83   3.45   10  349   17  64.4  58.5  999.6 -9.9 -9.999 -99.9 -99.99 -9.99
2019/11/20 17:30 PST    2.91   3.53    9  356   11  64.2  58.5  999.7 -9.9 -9.999 -99.9 -99.99 -9.99
2019/11/20 17:36 PST    2.98   3.61    8  357   12  64.4  58.5  999.8 -9.9 -9.999 -99.9 -99.99 -9.99
2019/11/20 17:42 PST    3.06   3.69    9  348   11  64.2  58.5  999.9 -9.9 -9.999 -99.9 -99.99 -9.99
2019/11/20 17:48 PST    3.13   3.76    7  343    9  63.7  58.5 1000.1 -9.9 -9.999 -99.9 -99.99 -9.99
2019/11/20 17:54 PST    3.20   3.83    6  307    7  63.7  58.5 1000.3 -9.9 -9.999 -99.9 -99.99 -9.99
2019/11/20 18:00 PST    3.27   3.90    4  276    6  62.4  58.5 1000.4 -9.9 -9.999 -99.9 -99.99 -9.99
2019/11/20 18:06 PST    3.34   3.96    4  255    5  61.5  58.5 1000.4 -9.9 -9.999 -99.9 -99.99 -9.99
2019/11/20 18:12 PST    3.40   4.04    3  252    5  60.8  58.5 1000.5 -9.9 -9.999 -99.9 -99.99 -9.99
2019/11/20 18:18 PST    3.46   4.11    3  273    4  60.4  58.5 1000.5 -9.9 -9.999 -99.9 -99.99 -9.99
2019/11/20 18:24 PST    3.52   4.18    4  278    4  61.0  58.5 1000.4 -9.9 -9.999 -99.9 -99.99 -9.99
2019/11/20 18:30 PST    3.57   4.25    2  269    4  61.0  58.5 1000.4 -9.9 -9.999 -99.9 -99.99 -9.99
2019/11/20 18:36 PST    3.62   4.30    1  172    2  60.1  58.5 1000.5 -9.9 -9.999 -99.9 -99.99 -9.99
2019/11/20 18:42 PST    3.67   4.34    1  231    3  60.8  58.3 1000.7 -9.9 -9.999 -99.9 -99.99 -9.99
2019/11/20 18:48 PST    3.71   4.38    2  207    4  60.3  58.3 1000.8 -9.9 -9.999 -99.9 -99.99 -9.99
2019/11/20 18:54 PST    3.75   4.43    2  207    3  60.4  58.3 1000.9 -9.9 -9.999 -99.9 -99.99 -9.99
2019/11/20 19:00 PST    3.79   4.47    2  174    3  60.4  58.3 1000.9 -9.9 -9.999 -99.9 -99.99 -9.99
2019/11/20 19:06 PST    3.82   4.51    3  187    3  60.3  58.3 1001.0 -9.9 -9.999 -99.9 -99.99 -9.99
2019/11/20 19:12 PST    3.85   4.54    4  229    4  60.3  58.3 1001.0 -9.9 -9.999 -99.9 -99.99 -9.99
2019/11/20 19:18 PST    3.87   4.57    3  245    5  61.3  58.3 1001.1 -9.9 -9.999 -99.9 -99.99 -9.99
2019/11/20 19:24 PST    3.90   4.60    2  255    4  61.0  58.3 1001.2 -9.9 -9.999 -99.9 -99.99 -9.99
2019/11/20 19:30 PST    3.91   4.62    2  149    3  59.9  58.3 1001.2 -9.9 -9.999 -99.9 -99.99 -9.99
2019/11/20 19:36 PST    3.93   4.63    3  220    4  60.8  58.3 1001.2 -9.9 -9.999 -99.9 -99.99 -9.99
2019/11/20 19:42 PST    3.94   4.65    2  232    3  60.6  58.3 1001.3 -9.9 -9.999 -99.9 -99.99 -9.99
2019/11/20 19:48 PST    3.95   4.66    5  256    7  61.9  58.3 1001.4 -9.9 -9.999 -99.9 -99.99 -9.99
2019/11/20 19:54 PST    3.96   4.67    5  260    8  62.4  58.3 1001.4 -9.9 -9.999 -99.9 -99.99 -9.99
2019/11/20 20:00 PST    3.96   4.67    4  272    7  61.9  58.3 1001.5 -9.9 -9.999 -99.9 -99.99 -9.99
2019/11/20 20:06 PST    3.96   4.68    4  273    6  61.0  58.3 1001.6 -9.9 -9.999 -99.9 -99.99 -9.99
2019/11/20 20:12 PST    3.95   4.67    4  301    6  61.0  58.3 1001.7 -9.9 -9.999 -99.9 -99.99 -9.99
2019/11/20 20:18 PST    3.94   4.67    2  275    4  60.4  58.3 1001.9 -9.9 -9.999 -99.9 -99.99 -9.99
2019/11/20 20:24 PST    3.93   4.66    3  285    3  60.3  58.3 1002.0 -9.9 -9.999 -99.9 -99.99 -9.99
2019/11/20 20:30 PST    3.91   4.64    2  282    4  61.5  58.3 1002.0 -9.9 -9.999 -99.9 -99.99 -9.99
2019/11/20 20:36 PST    3.90   4.63    4  234    5  61.3  58.3 1002.1 -9.9 -9.999 -99.9 -99.99 -9.99
2019/11/20 20:42 PST    3.87   4.60    3  246    4  61.0  58.3 1002.1 -9.9 -9.999 -99.9 -99.99 -9.99
2019/11/20 20:48 PST    3.85   4.58    4  267    5  61.3  58.3 1002.2 -9.9 -9.999 -99.9 -99.99 -9.99
2019/11/20 20:54 PST    3.82   4.55    2  260    4  61.0  58.3 1002.4 -9.9 -9.999 -99.9 -99.99 -9.99
2019/11/20 21:00 PST    3.78   4.51    1  206    4  60.1  58.3 1002.5 -9.9 -9.999 -99.9 -99.99 -9.99
2019/11/20 21:06 PST    3.74   4.48    2  286    3  60.4  58.3 1002.5 -9.9 -9.999 -99.9 -99.99 -9.99
2019/11/20 21:12 PST    3.70   4.43    4  250    5  59.7  58.3 1002.5 -9.9 -9.999 -99.9 -99.99 -9.99
2019/11/20 21:18 PST    3.66   4.38    3  122    5  59.2  58.3 1002.6 -9.9 -9.999 -99.9 -99.99 -9.99
2019/11/20 21:24 PST    3.61   4.32    3  103    8  60.3  58.3 1002.8 -9.9 -9.999 -99.9 -99.99 -9.99
2019/11/20 21:30 PST    3.55   4.27    7   98    8  59.4  58.3 1002.9 -9.9 -9.999 -99.9 -99.99 -9.99
2019/11/20 21:36 PST    3.50   4.20    5  102    7  58.3  58.3 1003.0 -9.9 -9.999 -99.9 -99.99 -9.99
2019/11/20 21:42 PST    3.44   4.13    5  111    6  58.3  58.3 1003.0 -9.9 -9.999 -99.9 -99.99 -9.99
2019/11/20 21:48 PST    3.37   4.06    5   99    6  57.9  58.3 1003.1 -9.9 -9.999 -99.9 -99.99 -9.99
2019/11/20 21:54 PST    3.31   3.97    6  105    6  58.6  58.3 1003.1 -9.9 -9.999 -99.9 -99.99 -9.99
2019/11/20 22:00 PST    3.24   3.89    7  102    8  58.3  58.3 1003.2 -9.9 -9.999 -99.9 -99.99 -9.99
2019/11/20 22:06 PST    3.16   3.79    7   99    8  57.7  58.3 1003.3 -9.9 -9.999 -99.9 -99.99 -9.99
2019/11/20 22:12 PST    3.09   3.70    7   96    8  58.1  58.3 1003.3 -9.9 -9.999 -99.9 -99.99 -9.99
2019/11/20 22:18 PST    3.01   3.61    9   81    9  58.5  58.3 1003.4 -9.9 -9.999 -99.9 -99.99 -9.99
2019/11/20 22:24 PST    2.93   3.52    8   79    9  57.6  58.3 1003.5 -9.9 -9.999 -99.9 -99.99 -9.99
2019/11/20 22:30 PST    2.85   3.42   10   48   12  58.6  58.3 1003.5 -9.9 -9.999 -99.9 -99.99 -9.99
2019/11/20 22:36 PST    2.76   3.32   11   44   12  58.3  58.3 1003.7 -9.9 -9.999 -99.9 -99.99 -9.99
2019/11/20 22:42 PST    2.67   3.22   11   33   13  58.3  58.3 1003.8 -9.9 -9.999 -99.9 -99.99 -9.99
2019/11/20 22:48 PST    2.59   3.12   13   16   17  59.2  58.3 1003.9 -9.9 -9.999 -99.9 -99.99 -9.99
2019/11/20 22:54 PST    2.50   3.03   16   14   20  58.8  58.3 1003.9 -9.9 -9.999 -99.9 -99.99 -9.99
2019/11/20 23:00 PST    2.41   2.94   15   12   18  58.1  58.3 1004.0 -9.9 -9.999 -99.9 -99.99 -9.99
2019/11/20 23:06 PST    2.31   2.86   16   15   19  57.6  58.3 1004.2 -9.9 -9.999 -99.9 -99.99 -9.99
2019/11/20 23:12 PST    2.22   2.78   16   25   22  55.9  58.3 1004.2 -9.9 -9.999 -99.9 -99.99 -9.99
2019/11/20 23:18 PST    2.13   2.68   17   32   18  54.0  58.3 1004.2 -9.9 -9.999 -99.9 -99.99 -9.99
2019/11/20 23:24 PST    2.04   2.58   16   38   18  53.2  58.3 1004.4 -9.9 -9.999 -99.9 -99.99 -9.99
2019/11/20 23:30 PST    1.95   2.47   17   49   19  53.1  58.3 1004.4 -9.9 -9.999 -99.9 -99.99 -9.99
2019/11/20 23:36 PST    1.86   2.37   14   44   19  53.2  58.3 1004.6 -9.9 -9.999 -99.9 -99.99 -9.99
2019/11/20 23:42 PST    1.77   2.27   13   45   15  52.9  58.1 1004.8 -9.9 -9.999 -99.9 -99.99 -9.99
2019/11/20 23:48 PST    1.68   2.18   12   46   15  52.9  58.1 1004.9 -9.9 -9.999 -99.9 -99.99 -9.99
2019/11/20 23:54 PST    1.59   2.07   12   44   14  52.0  58.1 1005.0 -9.9 -9.999 -99.9 -99.99 -9.99
2019/11/21 00:00 PST    1.50   2.01   12   46   13  51.8  58.1 1005.2 -9.9 -9.999 -99.9 -99.99 -9.99
2019/11/21 00:06 PST    1.42   1.92   11   43   13  51.6  58.1 1005.3 -9.9 -9.999 -99.9 -99.99 -9.99
2019/11/21 00:12 PST    1.34   1.84    9   50   11  51.8  58.1 1005.3 -9.9 -9.999 -99.9 -99.99 -9.99
2019/11/21 00:18 PST    1.26   1.76    9   54   11  51.8  58.1 1005.4 -9.9 -9.999 -99.9 -99.99 -9.99
2019/11/21 00:24 PST    1.18   1.67   10   51   11  51.6  58.1 1005.4 -9.9 -9.999 -99.9 -99.99 -9.99
2019/11/21 00:30 PST    1.10   1.61   10   60   12  52.2  58.1 1005.5 -9.9 -9.999 -99.9 -99.99 -9.99
2019/11/21 00:36 PST    1.03   1.54   10   49   12  52.0  57.9 1005.5 -9.9 -9.999 -99.9 -99.99 -9.99
2019/11/21 00:42 PST    0.96   1.48    9   51   11  51.6  57.9 1005.5 -9.9 -9.999 -99.9 -99.99 -9.99
2019/11/21 00:48 PST    0.89   1.42    9   51   11  51.8  57.9 1005.6 -9.9 -9.999 -99.9 -99.99 -9.99
2019/11/21 00:54 PST    0.82   1.36   11   55   12  51.6  57.9 1005.6 -9.9 -9.999 -99.9 -99.99 -9.99
2019/11/21 01:00 PST    0.76   1.30   10   46   11  52.0  57.9 1005.6 -9.9 -9.999 -99.9 -99.99 -9.99
2019/11/21 01:06 PST    0.70   1.24   10   43   11  51.8  57.9 1005.7 -9.9 -9.999 -99.9 -99.99 -9.99
2019/11/21 01:12 PST    0.64   1.19   10   51   11  52.0  57.9 1005.8 -9.9 -9.999 -99.9 -99.99 -9.99
2019/11/21 01:18 PST    0.59   1.14    9   49   11  51.4  57.9 1005.9 -9.9 -9.999 -99.9 -99.99 -9.99
2019/11/21 01:24 PST    0.54   1.09    7   47   10  51.3  57.7 1006.0 -9.9 -9.999 -99.9 -99.99 -9.99
2019/11/21 01:30 PST    0.49   1.03    9   47    9  51.3  57.7 1006.1 -9.9 -9.999 -99.9 -99.99 -9.99
2019/11/21 01:36 PST    0.44   0.99    7   57    9  52.0  57.7 1006.3 -9.9 -9.999 -99.9 -99.99 -9.99
2019/11/21 01:42 PST    0.40   0.94    8   59    9  51.6  57.7 1006.4 -9.9 -9.999 -99.9 -99.99 -9.99
2019/11/21 01:48 PST    0.36   0.89    9   65   10  51.4  57.7 1006.4 -9.9 -9.999 -99.9 -99.99 -9.99
2019/11/21 01:54 PST    0.32   0.85    9   54   10  51.6  57.6 1006.5 -9.9 -9.999 -99.9 -99.99 -9.99
2019/11/21 02:00 PST    0.28   0.81    8   59    9  51.4  57.6 1006.7 -9.9 -9.999 -99.9 -99.99 -9.99
2019/11/21 02:06 PST    0.25   0.77    7   53    9  51.3  57.4 1006.8 -9.9 -9.999 -99.9 -99.99 -9.99
2019/11/21 02:12 PST    0.22   0.74    7   53    9  51.1  57.2 1006.9 -9.9 -9.999 -99.9 -99.99 -9.99
2019/11/21 02:18 PST    0.19   0.70    6   40    8  50.9  57.0 1007.0 -9.9 -9.999 -99.9 -99.99 -9.99
2019/11/21 02:24 PST    0.17   0.66    6   29    7  50.4  56.8 1007.1 -9.9 -9.999 -99.9 -99.99 -9.99
2019/11/21 02:30 PST    0.14   0.63    6   27    7  50.2  56.8 1007.2 -9.9 -9.999 -99.9 -99.99 -9.99
2019/11/21 02:36 PST    0.12   0.59    7   32    8  50.2  56.8 1007.2 -9.9 -9.999 -99.9 -99.99 -9.99
2019/11/21 02:42 PST    0.11   0.56    7   27    8  50.4  56.8 1007.2 -9.9 -9.999 -99.9 -99.99 -9.99
2019/11/21 02:48 PST    0.10   0.53    8   30    9  50.0  56.8 1007.4 -9.9 -9.999 -99.9 -99.99 -9.99
2019/11/21 02:54 PST    0.09   0.50    8   35    9  49.6  56.8 1007.4 -9.9 -9.999 -99.9 -99.99 -9.99
2019/11/21 03:00 PST    0.08   0.47    9   36   10  49.6  57.2 1007.3 -9.9 -9.999 -99.9 -99.99 -9.99
2019/11/21 03:06 PST    0.08   0.43    8   37    9  49.8  57.2 1007.5 -9.9 -9.999 -99.9 -99.99 -9.99
2019/11/21 03:12 PST    0.08   0.42    7   36    8  49.6  57.2 1007.5 -9.9 -9.999 -99.9 -99.99 -9.99
2019/11/21 03:18 PST    0.08   0.40    8   45    9  49.8  57.2 1007.4 -9.9 -9.999 -99.9 -99.99 -9.99
2019/11/21 03:24 PST    0.09   0.39    8   49    9  49.8  57.2 1007.5 -9.9 -9.999 -99.9 -99.99 -9.99
2019/11/21 03:30 PST    0.11   0.38    8   48    9  49.6  57.2 1007.5 -9.9 -9.999 -99.9 -99.99 -9.99
2019/11/21 03:36 PST    0.13   0.37    8   41    8  49.6  57.2 1007.5 -9.9 -9.999 -99.9 -99.99 -9.99
2019/11/21 03:42 PST    0.15   0.37    8   38    9  49.3  57.0 1007.6 -9.9 -9.999 -99.9 -99.99 -9.99
2019/11/21 03:48 PST    0.18   0.39    7   35    9  49.1  57.2 1007.6 -9.9 -9.999 -99.9 -99.99 -9.99
2019/11/21 03:54 PST    0.21   0.42    8   32    9  49.1  57.2 1007.7 -9.9 -9.999 -99.9 -99.99 -9.99
2019/11/21 04:00 PST    0.24   0.45    8   39    9  48.9  57.4 1007.7 -9.9 -9.999 -99.9 -99.99 -9.99
2019/11/21 04:06 PST    0.29   0.49    8   36    8  49.1  57.4 1007.7 -9.9 -9.999 -99.9 -99.99 -9.99
2019/11/21 04:12 PST    0.33   0.54    8   46    9  49.6  57.6 1007.8 -9.9 -9.999 -99.9 -99.99 -9.99
2019/11/21 04:18 PST    0.38   0.60    8   43    9  49.5  57.6 1008.1 -9.9 -9.999 -99.9 -99.99 -9.99
2019/11/21 04:24 PST    0.44   0.66    8   53    9  49.5  57.6 1008.1 -9.9 -9.999 -99.9 -99.99 -9.99
2019/11/21 04:30 PST    0.50   0.72    8   59    9  49.6  57.6 1008.2 -9.9 -9.999 -99.9 -99.99 -9.99
2019/11/21 04:36 PST    0.57   0.81    8   57    9  49.6  57.7 1008.3 -9.9 -9.999 -99.9 -99.99 -9.99
2019/11/21 04:42 PST    0.64 -99.99 -999 -999 -999 -99.9 -99.9 -999.9 -9.9 -9.999 -99.9 -99.99 -9.99
2019/11/21 04:48 PST    0.71 -99.99 -999 -999 -999 -99.9 -99.9 -999.9 -9.9 -9.999 -99.9 -99.99 -9.99